KLM735 EHAM-TNCC
Flight info
| Callsign | KLM735 |
|---|---|
| Flight time | N/A |
| Altitude | 34000 |
| Route | IDRID L980 LOGAN DCT SAM N19 ADKIK DCT JOZMA DCT GAPLI/M083F340 DCT OMOKO DCT 48N015W 47N020W 42N030W/M083F360 35N040W 29N050W/M083F380 25N055W DCT RKDIA M576 OBIKE/N0482F380 DCT PJM/N0475F400 M576 MILOK DCT ACORA ACORA1B |
| Aircraft | MD11/H-SDE1E2E3FGHIJ2J3J4J5M1RWXY/LB1D1 |
Departure
| Time | N/A |
|---|---|
| Airport | Amsterdam Airport Schiphol (EHAM) |
Arrival
| Time | 2026-04-11 23:17 |
|---|---|
| Airport | Hato International Airport (TNCC) |
| Time | Latitude | Longitude | Altitude | Speed | Heading |
|---|---|---|---|---|---|
| 2026-04-11 15:11 | 48.23436 | -14.20679 | 37942 ft | 415 kts | 249° |
| 2026-04-11 15:11 | 48.22296 | -14.24657 | 37950 ft | 415 kts | 249° |
| 2026-04-11 15:12 | 48.20001 | -14.32612 | 37955 ft | 416 kts | 249° |
| 2026-04-11 15:12 | 48.17671 | -14.40544 | 37945 ft | 416 kts | 249° |
| 2026-04-11 15:13 | 48.15355 | -14.48480 | 37965 ft | 416 kts | 249° |
| 2026-04-11 15:13 | 48.13045 | -14.56419 | 37958 ft | 416 kts | 249° |
| 2026-04-11 15:14 | 48.10733 | -14.64360 | 37957 ft | 416 kts | 249° |
| 2026-04-11 15:14 | 48.08414 | -14.72297 | 37961 ft | 416 kts | 249° |
| 2026-04-11 15:15 | 48.06089 | -14.80232 | 37997 ft | 416 kts | 249° |
| 2026-04-11 15:15 | 48.03758 | -14.88158 | 38005 ft | 417 kts | 249° |
| 2026-04-11 15:16 | 48.01418 | -14.96096 | 38007 ft | 418 kts | 249° |
| 2026-04-11 15:16 | 47.99110 | -15.04067 | 38013 ft | 417 kts | 252° |
| 2026-04-11 15:17 | 47.97440 | -15.12273 | 38016 ft | 416 kts | 257° |
| 2026-04-11 15:17 | 47.96018 | -15.20631 | 38016 ft | 416 kts | 257° |
| 2026-04-11 15:18 | 47.94589 | -15.28988 | 38023 ft | 416 kts | 257° |
| 2026-04-11 15:18 | 47.93130 | -15.37339 | 38025 ft | 416 kts | 257° |
| 2026-04-11 15:19 | 47.91653 | -15.45687 | 38024 ft | 416 kts | 257° |
| 2026-04-11 15:19 | 47.90170 | -15.54032 | 38025 ft | 416 kts | 257° |
| 2026-04-11 15:20 | 47.88681 | -15.62374 | 38033 ft | 416 kts | 257° |
| 2026-04-11 15:20 | 47.87197 | -15.70649 | 38035 ft | 415 kts | 257° |
| 2026-04-11 15:21 | 47.85695 | -15.78971 | 38035 ft | 416 kts | 257° |
| 2026-04-11 15:21 | 47.84186 | -15.87292 | 38037 ft | 416 kts | 257° |
| 2026-04-11 15:22 | 47.82674 | -15.95598 | 38043 ft | 416 kts | 257° |
| 2026-04-11 15:22 | 47.81154 | -16.03916 | 38044 ft | 416 kts | 257° |
| 2026-04-11 15:23 | 47.79629 | -16.12226 | 38044 ft | 416 kts | 257° |
| 2026-04-11 15:23 | 47.78098 | -16.20524 | 38052 ft | 416 kts | 257° |
| 2026-04-11 15:24 | 47.76534 | -16.28812 | 38053 ft | 416 kts | 257° |
| 2026-04-11 15:24 | 47.74969 | -16.37040 | 38053 ft | 416 kts | 257° |
| 2026-04-11 15:25 | 47.73407 | -16.45333 | 38053 ft | 416 kts | 257° |
| 2026-04-11 15:25 | 47.71849 | -16.53615 | 38065 ft | 416 kts | 257° |
| 2026-04-11 15:26 | 47.70286 | -16.61901 | 38062 ft | 416 kts | 257° |
| 2026-04-11 15:26 | 47.68715 | -16.70179 | 38062 ft | 416 kts | 257° |
| 2026-04-11 15:27 | 47.67142 | -16.78455 | 38073 ft | 416 kts | 257° |
| 2026-04-11 15:27 | 47.65562 | -16.86724 | 38072 ft | 417 kts | 257° |
| 2026-04-11 15:28 | 47.63985 | -16.94951 | 38071 ft | 417 kts | 257° |
| 2026-04-11 15:28 | 47.62391 | -17.03216 | 38072 ft | 417 kts | 257° |
| 2026-04-11 15:29 | 47.60788 | -17.11493 | 38081 ft | 417 kts | 257° |
| 2026-04-11 15:29 | 47.59180 | -17.19760 | 38086 ft | 417 kts | 257° |
| 2026-04-11 15:30 | 47.57566 | -17.28020 | 38083 ft | 417 kts | 257° |
| 2026-04-11 15:30 | 47.55949 | -17.36258 | 38081 ft | 417 kts | 257° |
| 2026-04-11 15:31 | 47.54324 | -17.44448 | 38092 ft | 417 kts | 257° |
| 2026-04-11 15:31 | 47.52657 | -17.52673 | 38095 ft | 417 kts | 257° |
| 2026-04-11 15:32 | 47.51002 | -17.60905 | 38089 ft | 417 kts | 257° |
| 2026-04-11 15:32 | 47.49354 | -17.69134 | 38098 ft | 418 kts | 257° |
| 2026-04-11 15:33 | 47.47706 | -17.77359 | 38103 ft | 417 kts | 257° |
| 2026-04-11 15:33 | 47.46054 | -17.85576 | 38097 ft | 417 kts | 257° |
| 2026-04-11 15:34 | 47.44395 | -17.93786 | 38097 ft | 417 kts | 257° |
| 2026-04-11 15:34 | 47.42729 | -18.02003 | 38112 ft | 417 kts | 257° |
| 2026-04-11 15:35 | 47.41068 | -18.10146 | 38111 ft | 417 kts | 257° |
| 2026-04-11 15:35 | 47.39389 | -18.18360 | 38108 ft | 418 kts | 257° |
| 2026-04-11 15:36 | 47.37704 | -18.26564 | 38116 ft | 418 kts | 257° |
| 2026-04-11 15:36 | 47.36012 | -18.34765 | 38118 ft | 418 kts | 257° |
| 2026-04-11 15:37 | 47.34314 | -18.42966 | 38119 ft | 418 kts | 257° |
| 2026-04-11 15:37 | 47.32609 | -18.51165 | 38119 ft | 417 kts | 257° |
| 2026-04-11 15:38 | 47.30911 | -18.59290 | 38128 ft | 418 kts | 257° |
| 2026-04-11 15:38 | 47.29155 | -18.67471 | 38127 ft | 418 kts | 256° |
| 2026-04-11 15:39 | 47.27405 | -18.75651 | 38127 ft | 418 kts | 257° |
| 2026-04-11 15:39 | 47.25669 | -18.83828 | 38134 ft | 419 kts | 257° |
| 2026-04-11 15:40 | 47.23934 | -18.91999 | 38131 ft | 418 kts | 257° |
| 2026-04-11 15:40 | 47.22196 | -19.00165 | 38133 ft | 418 kts | 257° |
| 2026-04-11 15:41 | 47.20447 | -19.08338 | 38149 ft | 418 kts | 257° |
| 2026-04-11 15:41 | 47.18691 | -19.16509 | 38149 ft | 419 kts | 257° |
| 2026-04-11 15:42 | 47.16942 | -19.24612 | 38146 ft | 419 kts | 257° |
| 2026-04-11 15:43 | 47.14281 | -19.36906 | 38147 ft | 419 kts | 257° |
| 2026-04-11 15:43 | 47.12515 | -19.45015 | 38154 ft | 419 kts | 257° |
| 2026-04-11 15:44 | 47.10732 | -19.53170 | 38159 ft | 419 kts | 257° |
| 2026-04-11 15:44 | 47.08941 | -19.61324 | 38155 ft | 420 kts | 257° |
| 2026-04-11 15:45 | 47.07141 | -19.69491 | 38166 ft | 420 kts | 257° |
| 2026-04-11 15:45 | 47.05330 | -19.77636 | 38167 ft | 420 kts | 256° |
| 2026-04-11 15:46 | 47.03482 | -19.85766 | 38182 ft | 420 kts | 256° |
| 2026-04-11 15:46 | 47.01119 | -19.93659 | 38183 ft | 427 kts | 246° |
| 2026-04-11 15:47 | 46.98044 | -20.01078 | 38189 ft | 430 kts | 244° |
| 2026-04-11 15:47 | 46.94873 | -20.08503 | 38194 ft | 429 kts | 245° |
| 2026-04-11 15:48 | 46.91744 | -20.15941 | 38192 ft | 429 kts | 245° |
| 2026-04-11 15:48 | 46.88635 | -20.23392 | 38202 ft | 429 kts | 245° |
| 2026-04-11 15:49 | 46.85529 | -20.30833 | 38208 ft | 429 kts | 245° |
| 2026-04-11 15:49 | 46.82420 | -20.38263 | 38228 ft | 429 kts | 245° |
| 2026-04-11 15:50 | 46.79299 | -20.45696 | 38231 ft | 429 kts | 245° |
| 2026-04-11 15:50 | 46.76194 | -20.53074 | 38226 ft | 430 kts | 245° |
| 2026-04-11 15:51 | 46.73064 | -20.60496 | 38233 ft | 429 kts | 245° |
| 2026-04-11 15:51 | 46.69930 | -20.67896 | 38244 ft | 429 kts | 245° |
| 2026-04-11 15:52 | 46.66791 | -20.75294 | 38249 ft | 429 kts | 245° |
| 2026-04-11 15:52 | 46.63638 | -20.82702 | 38249 ft | 430 kts | 245° |
| 2026-04-11 15:53 | 46.61018 | -20.88842 | 38254 ft | 430 kts | 245° |
| 2026-04-11 15:53 | 46.57850 | -20.96208 | 38258 ft | 430 kts | 245° |
| 2026-04-11 15:54 | 46.54657 | -21.03566 | 38259 ft | 430 kts | 245° |
| 2026-04-11 15:54 | 46.51473 | -21.10933 | 38266 ft | 430 kts | 245° |
| 2026-04-11 15:55 | 46.48294 | -21.18299 | 38269 ft | 431 kts | 245° |
| 2026-04-11 15:55 | 46.45110 | -21.25667 | 38275 ft | 431 kts | 245° |
| 2026-04-11 15:56 | 46.41920 | -21.33030 | 38274 ft | 431 kts | 245° |
| 2026-04-11 15:56 | 46.38725 | -21.40377 | 38284 ft | 431 kts | 245° |
| 2026-04-11 15:57 | 46.35545 | -21.47681 | 38283 ft | 432 kts | 245° |
| 2026-04-11 15:57 | 46.32336 | -21.55026 | 38295 ft | 431 kts | 245° |
| 2026-04-11 15:58 | 46.29123 | -21.62363 | 38295 ft | 432 kts | 245° |
| 2026-04-11 15:58 | 46.25902 | -21.69693 | 38297 ft | 432 kts | 245° |
| 2026-04-11 15:59 | 46.22675 | -21.77016 | 38303 ft | 432 kts | 245° |
| 2026-04-11 15:59 | 46.19443 | -21.84342 | 38307 ft | 432 kts | 245° |
| 2026-04-11 16:00 | 46.16206 | -21.91654 | 38312 ft | 432 kts | 245° |
| 2026-04-11 16:00 | 46.12947 | -21.98944 | 38313 ft | 433 kts | 245° |
| 2026-04-11 16:01 | 46.09676 | -22.06214 | 38321 ft | 433 kts | 245° |
| 2026-04-11 16:01 | 46.06411 | -22.13500 | 38322 ft | 432 kts | 245° |
| 2026-04-11 16:02 | 46.03156 | -22.20774 | 38332 ft | 432 kts | 245° |
| 2026-04-11 16:02 | 45.99895 | -22.28046 | 38336 ft | 432 kts | 245° |
| 2026-04-11 16:03 | 45.96628 | -22.35310 | 38322 ft | 433 kts | 245° |
| 2026-04-11 16:03 | 45.93360 | -22.42564 | 38331 ft | 432 kts | 245° |
| 2026-04-11 16:04 | 45.90083 | -22.49818 | 38337 ft | 433 kts | 245° |
| 2026-04-11 16:04 | 45.86799 | -22.57069 | 38341 ft | 433 kts | 245° |
| 2026-04-11 16:05 | 45.83511 | -22.64300 | 38362 ft | 433 kts | 245° |
| 2026-04-11 16:05 | 45.80240 | -22.71485 | 38377 ft | 432 kts | 245° |
| 2026-04-11 16:06 | 45.75292 | -22.82313 | 38387 ft | 433 kts | 245° |
| 2026-04-11 16:06 | 45.71981 | -22.89533 | 38388 ft | 433 kts | 245° |
| 2026-04-11 16:07 | 45.68667 | -22.96727 | 38396 ft | 433 kts | 245° |
| 2026-04-11 16:07 | 45.65326 | -23.03893 | 38396 ft | 434 kts | 245° |
| 2026-04-11 16:08 | 45.61989 | -23.11070 | 38397 ft | 433 kts | 245° |
| 2026-04-11 16:08 | 45.58663 | -23.18236 | 38422 ft | 433 kts | 245° |
| 2026-04-11 16:09 | 45.55340 | -23.25399 | 38411 ft | 432 kts | 245° |
| 2026-04-11 16:09 | 45.52013 | -23.32547 | 38415 ft | 433 kts | 245° |
| 2026-04-11 16:10 | 45.48683 | -23.39682 | 38429 ft | 432 kts | 245° |
| 2026-04-11 16:10 | 45.45349 | -23.46812 | 38434 ft | 433 kts | 245° |
| 2026-04-11 16:11 | 45.42000 | -23.53951 | 38437 ft | 433 kts | 245° |
| 2026-04-11 16:11 | 45.38649 | -23.61076 | 38442 ft | 433 kts | 245° |
| 2026-04-11 16:12 | 45.35296 | -23.68186 | 38448 ft | 433 kts | 245° |
| 2026-04-11 16:12 | 45.31955 | -23.75253 | 38455 ft | 433 kts | 245° |
| 2026-04-11 16:13 | 45.28593 | -23.82352 | 38450 ft | 433 kts | 245° |
| 2026-04-11 16:13 | 45.25221 | -23.89454 | 38459 ft | 433 kts | 245° |
| 2026-04-11 16:14 | 45.21839 | -23.96525 | 38463 ft | 433 kts | 245° |
| 2026-04-11 16:14 | 45.18425 | -24.03599 | 38470 ft | 434 kts | 245° |
| 2026-04-11 16:15 | 45.15036 | -24.10643 | 38471 ft | 432 kts | 245° |
| 2026-04-11 16:15 | 45.11665 | -24.17667 | 38480 ft | 431 kts | 245° |
| 2026-04-11 16:16 | 45.08316 | -24.24632 | 38480 ft | 431 kts | 245° |
| 2026-04-11 16:16 | 45.04937 | -24.31642 | 38489 ft | 431 kts | 245° |
| 2026-04-11 16:17 | 45.01556 | -24.38633 | 38494 ft | 431 kts | 245° |
| 2026-04-11 16:17 | 44.98173 | -24.45619 | 38502 ft | 430 kts | 245° |
| 2026-04-11 16:18 | 44.94789 | -24.52590 | 38498 ft | 430 kts | 245° |
| 2026-04-11 16:18 | 44.91400 | -24.59557 | 38507 ft | 431 kts | 245° |
| 2026-04-11 16:19 | 44.87998 | -24.66527 | 38513 ft | 432 kts | 245° |
| 2026-04-11 16:19 | 44.84609 | -24.73453 | 38517 ft | 431 kts | 245° |
| 2026-04-11 16:20 | 44.81194 | -24.80419 | 38518 ft | 431 kts | 245° |
| 2026-04-11 16:20 | 44.77784 | -24.87355 | 38526 ft | 430 kts | 245° |
| 2026-04-11 16:21 | 44.74364 | -24.94256 | 38524 ft | 430 kts | 245° |
| 2026-04-11 16:21 | 44.70929 | -25.01138 | 38528 ft | 430 kts | 245° |
| 2026-04-11 16:22 | 44.67501 | -25.08036 | 38533 ft | 430 kts | 245° |
| 2026-04-11 16:22 | 44.64079 | -25.14926 | 38534 ft | 430 kts | 245° |
| 2026-04-11 16:23 | 44.60678 | -25.21763 | 38564 ft | 429 kts | 245° |
| 2026-04-11 16:23 | 44.57256 | -25.28631 | 38611 ft | 429 kts | 246° |
| 2026-04-11 16:24 | 44.53833 | -25.35482 | 38622 ft | 429 kts | 246° |
| 2026-04-11 16:24 | 44.50409 | -25.42309 | 38702 ft | 428 kts | 245° |
| 2026-04-11 16:25 | 44.46987 | -25.49122 | 38707 ft | 427 kts | 246° |
| 2026-04-11 16:25 | 44.43568 | -25.55914 | 38711 ft | 426 kts | 245° |
| 2026-04-11 16:26 | 44.40147 | -25.62693 | 38708 ft | 426 kts | 245° |
| 2026-04-11 16:26 | 44.36719 | -25.69471 | 38706 ft | 427 kts | 245° |
| 2026-04-11 16:27 | 44.33282 | -25.76246 | 38716 ft | 427 kts | 246° |
| 2026-04-11 16:27 | 44.29846 | -25.83015 | 38717 ft | 427 kts | 245° |
| 2026-04-11 16:28 | 44.26408 | -25.89722 | 38716 ft | 427 kts | 245° |
| 2026-04-11 16:28 | 44.22936 | -25.96450 | 38717 ft | 427 kts | 245° |
| 2026-04-11 16:29 | 44.19479 | -26.03179 | 38716 ft | 427 kts | 245° |
| 2026-04-11 16:29 | 44.16026 | -26.09906 | 38716 ft | 427 kts | 246° |
| 2026-04-11 16:30 | 44.12571 | -26.16631 | 38716 ft | 427 kts | 245° |
| 2026-04-11 16:30 | 44.09113 | -26.23342 | 38716 ft | 427 kts | 245° |
| 2026-04-11 16:31 | 44.05649 | -26.30048 | 38716 ft | 427 kts | 245° |
| 2026-04-11 16:31 | 44.02203 | -26.36705 | 38716 ft | 427 kts | 245° |
| 2026-04-11 16:32 | 43.98734 | -26.43392 | 38716 ft | 427 kts | 245° |
| 2026-04-11 16:32 | 43.95251 | -26.50087 | 38717 ft | 427 kts | 245° |
| 2026-04-11 16:33 | 43.91767 | -26.56766 | 38716 ft | 427 kts | 245° |
| 2026-04-11 16:33 | 43.88286 | -26.63431 | 38716 ft | 426 kts | 245° |
| 2026-04-11 16:34 | 43.84793 | -26.70104 | 38723 ft | 428 kts | 245° |
| 2026-04-11 16:34 | 43.81294 | -26.76769 | 38726 ft | 428 kts | 245° |
| 2026-04-11 16:35 | 43.77773 | -26.83421 | 38726 ft | 428 kts | 245° |
| 2026-04-11 16:35 | 43.74259 | -26.90019 | 38726 ft | 429 kts | 245° |
| 2026-04-11 16:36 | 43.70707 | -26.96714 | 38726 ft | 429 kts | 245° |
| 2026-04-11 16:36 | 43.67208 | -27.03317 | 38725 ft | 429 kts | 245° |
| 2026-04-11 16:37 | 43.63681 | -27.09961 | 38726 ft | 429 kts | 245° |
| 2026-04-11 16:37 | 43.60152 | -27.16592 | 38726 ft | 429 kts | 245° |
| 2026-04-11 16:38 | 43.56617 | -27.23220 | 38725 ft | 429 kts | 245° |
| 2026-04-11 16:38 | 43.53082 | -27.29835 | 38725 ft | 429 kts | 245° |
| 2026-04-11 16:39 | 43.49544 | -27.36440 | 38726 ft | 428 kts | 245° |
| 2026-04-11 16:39 | 43.45997 | -27.43046 | 38726 ft | 429 kts | 245° |
| 2026-04-11 16:40 | 43.43047 | -27.48534 | 38726 ft | 430 kts | 245° |
| 2026-04-11 16:40 | 43.39485 | -27.55139 | 38733 ft | 430 kts | 245° |
| 2026-04-11 16:41 | 43.35921 | -27.61732 | 38735 ft | 430 kts | 245° |
| 2026-04-11 16:41 | 43.32351 | -27.68326 | 38735 ft | 430 kts | 245° |
| 2026-04-11 16:42 | 43.28763 | -27.74903 | 38735 ft | 430 kts | 245° |
| 2026-04-11 16:43 | 43.23382 | -27.84709 | 38735 ft | 431 kts | 245° |
| 2026-04-11 16:43 | 43.19789 | -27.91280 | 38734 ft | 431 kts | 245° |
| 2026-04-11 16:44 | 43.16162 | -27.97909 | 38734 ft | 432 kts | 245° |
| 2026-04-11 16:44 | 43.12576 | -28.04447 | 38735 ft | 432 kts | 245° |
| 2026-04-11 16:45 | 43.08958 | -28.11032 | 38735 ft | 433 kts | 245° |
| 2026-04-11 16:45 | 43.05329 | -28.17624 | 38735 ft | 434 kts | 246° |
| 2026-04-11 16:46 | 43.01686 | -28.24224 | 38734 ft | 435 kts | 245° |
| 2026-04-11 16:46 | 42.98039 | -28.30825 | 38736 ft | 435 kts | 245° |
| 2026-04-11 16:47 | 42.94385 | -28.37383 | 38739 ft | 432 kts | 246° |
| 2026-04-11 16:47 | 42.90742 | -28.43951 | 38749 ft | 436 kts | 246° |
| 2026-04-11 16:48 | 42.87050 | -28.50551 | 38751 ft | 438 kts | 246° |
| 2026-04-11 16:48 | 42.83369 | -28.57169 | 38755 ft | 438 kts | 246° |
| 2026-04-11 16:49 | 42.79691 | -28.63767 | 38747 ft | 439 kts | 246° |
| 2026-04-11 16:49 | 42.75965 | -28.70310 | 38756 ft | 439 kts | 244° |
| 2026-04-11 16:50 | 42.72245 | -28.76886 | 38750 ft | 438 kts | 246° |
| 2026-04-11 16:50 | 42.68531 | -28.83486 | 38746 ft | 441 kts | 245° |
| 2026-04-11 16:51 | 42.64812 | -28.90097 | 38746 ft | 440 kts | 246° |
| 2026-04-11 16:51 | 42.61071 | -28.96714 | 38739 ft | 441 kts | 246° |
| 2026-04-11 16:52 | 42.57325 | -29.03319 | 38738 ft | 442 kts | 244° |
| 2026-04-11 16:52 | 42.53581 | -29.09911 | 38742 ft | 443 kts | 247° |
| 2026-04-11 16:53 | 42.49784 | -29.16513 | 38741 ft | 444 kts | 245° |
| 2026-04-11 16:53 | 42.46024 | -29.23149 | 38751 ft | 446 kts | 245° |
| 2026-04-11 16:54 | 42.42217 | -29.29808 | 38745 ft | 447 kts | 245° |
| 2026-04-11 16:54 | 42.38417 | -29.36452 | 38744 ft | 447 kts | 244° |
| 2026-04-11 16:55 | 42.34608 | -29.43090 | 38739 ft | 444 kts | 244° |
| 2026-04-11 16:55 | 42.30822 | -29.49659 | 38746 ft | 447 kts | 245° |
| 2026-04-11 16:56 | 42.25015 | -29.59636 | 38746 ft | 455 kts | 244° |
| 2026-04-11 16:56 | 42.21079 | -29.66367 | 38744 ft | 458 kts | 244° |
| 2026-04-11 16:57 | 42.17151 | -29.73119 | 38741 ft | 459 kts | 243° |
| 2026-04-11 16:57 | 42.13187 | -29.79888 | 38750 ft | 459 kts | 244° |
| 2026-04-11 16:58 | 42.09258 | -29.86660 | 38753 ft | 459 kts | 243° |
| 2026-04-11 16:58 | 42.05291 | -29.93426 | 38755 ft | 461 kts | 243° |
| 2026-04-11 16:59 | 42.01364 | -30.00169 | 38754 ft | 460 kts | 244° |
| 2026-04-11 16:59 | 41.97405 | -30.06935 | 38748 ft | 461 kts | 244° |
| 2026-04-11 17:00 | 41.93450 | -30.13697 | 38757 ft | 462 kts | 242° |
| 2026-04-11 17:00 | 41.89449 | -30.20446 | 38753 ft | 462 kts | 243° |
| 2026-04-11 17:01 | 41.85475 | -30.27143 | 38756 ft | 457 kts | 243° |
| 2026-04-11 17:01 | 41.81528 | -30.33846 | 38753 ft | 460 kts | 244° |
| 2026-04-11 17:02 | 41.77538 | -30.40577 | 38752 ft | 462 kts | 243° |
| 2026-04-11 17:02 | 41.73504 | -30.47280 | 38754 ft | 462 kts | 243° |
| 2026-04-11 17:03 | 41.69476 | -30.53995 | 38752 ft | 462 kts | 243° |
| 2026-04-11 17:03 | 41.65464 | -30.60706 | 38754 ft | 462 kts | 243° |
| 2026-04-11 17:04 | 41.61452 | -30.67403 | 38753 ft | 461 kts | 243° |
| 2026-04-11 17:04 | 41.57471 | -30.74049 | 38754 ft | 461 kts | 243° |
| 2026-04-11 17:05 | 41.53449 | -30.80733 | 38757 ft | 461 kts | 243° |
| 2026-04-11 17:05 | 41.49427 | -30.87395 | 38762 ft | 461 kts | 242° |
| 2026-04-11 17:06 | 41.45394 | -30.94066 | 38762 ft | 461 kts | 243° |
| 2026-04-11 17:06 | 41.41364 | -31.00725 | 38763 ft | 462 kts | 242° |
| 2026-04-11 17:07 | 41.37328 | -31.07378 | 38762 ft | 462 kts | 242° |
| 2026-04-11 17:07 | 41.33287 | -31.14024 | 38762 ft | 462 kts | 242° |
| 2026-04-11 17:08 | 41.29232 | -31.20675 | 38762 ft | 462 kts | 242° |
| 2026-04-11 17:08 | 41.25203 | -31.27260 | 38763 ft | 462 kts | 242° |
| 2026-04-11 17:09 | 41.21116 | -31.33879 | 38769 ft | 463 kts | 242° |
| 2026-04-11 17:09 | 41.17043 | -31.40481 | 38763 ft | 462 kts | 242° |
| 2026-04-11 17:13 | 40.88486 | -31.86626 | 38763 ft | 465 kts | 241° |
| 2026-04-11 17:13 | 40.84371 | -31.93215 | 38762 ft | 465 kts | 241° |
| 2026-04-11 17:14 | 40.80255 | -31.99799 | 38762 ft | 465 kts | 241° |
| 2026-04-11 17:14 | 40.76137 | -32.06362 | 38761 ft | 464 kts | 240° |
| 2026-04-11 17:16 | 40.65791 | -32.22727 | 38780 ft | 466 kts | 240° |
| 2026-04-11 17:16 | 40.61639 | -32.29276 | 38756 ft | 466 kts | 240° |
| 2026-04-11 17:17 | 40.57486 | -32.35829 | 38744 ft | 466 kts | 240° |
| 2026-04-11 17:17 | 40.53337 | -32.42369 | 38744 ft | 466 kts | 240° |
| 2026-04-11 17:18 | 40.49209 | -32.48855 | 38744 ft | 465 kts | 240° |
| 2026-04-11 17:18 | 40.45052 | -32.55385 | 38744 ft | 465 kts | 240° |
| 2026-04-11 17:19 | 40.40901 | -32.61898 | 38743 ft | 464 kts | 240° |
| 2026-04-11 17:19 | 40.36744 | -32.68391 | 38743 ft | 464 kts | 240° |
| 2026-04-11 17:20 | 40.32587 | -32.74872 | 38744 ft | 463 kts | 240° |
| 2026-04-11 17:20 | 40.28439 | -32.81329 | 38744 ft | 463 kts | 240° |
| 2026-04-11 17:21 | 40.24310 | -32.87735 | 38743 ft | 462 kts | 240° |
| 2026-04-11 17:21 | 40.20165 | -32.94153 | 38735 ft | 462 kts | 240° |
| 2026-04-11 17:22 | 40.16002 | -33.00553 | 38734 ft | 461 kts | 239° |
| 2026-04-11 17:22 | 40.11846 | -33.06924 | 38735 ft | 460 kts | 239° |
| 2026-04-11 17:23 | 40.07710 | -33.13285 | 38734 ft | 459 kts | 239° |
| 2026-04-11 17:23 | 40.03582 | -33.19633 | 38734 ft | 458 kts | 239° |
| 2026-04-11 17:24 | 39.99458 | -33.25962 | 38734 ft | 457 kts | 239° |
| 2026-04-11 17:24 | 39.95335 | -33.32273 | 38735 ft | 456 kts | 239° |
| 2026-04-11 17:25 | 39.91214 | -33.38572 | 38735 ft | 457 kts | 239° |
| 2026-04-11 17:25 | 39.87088 | -33.44863 | 38735 ft | 456 kts | 239° |
| 2026-04-11 17:26 | 39.82963 | -33.51134 | 38734 ft | 456 kts | 239° |
| 2026-04-11 17:26 | 39.78834 | -33.57401 | 38734 ft | 456 kts | 239° |
| 2026-04-11 17:27 | 39.74702 | -33.63656 | 38735 ft | 455 kts | 239° |
| 2026-04-11 17:27 | 39.70601 | -33.69861 | 38735 ft | 455 kts | 239° |
| 2026-04-11 17:28 | 39.66470 | -33.76100 | 38735 ft | 455 kts | 238° |
| 2026-04-11 17:28 | 39.62314 | -33.82324 | 38734 ft | 456 kts | 238° |
| 2026-04-11 17:29 | 39.58153 | -33.88536 | 38735 ft | 456 kts | 238° |
| 2026-04-11 17:29 | 39.54706 | -33.93697 | 38735 ft | 456 kts | 238° |
| 2026-04-11 17:30 | 39.50555 | -33.99911 | 38735 ft | 456 kts | 238° |
| 2026-04-11 17:30 | 39.45732 | -34.07116 | 38735 ft | 455 kts | 238° |
| 2026-04-11 17:31 | 39.42262 | -34.12293 | 38734 ft | 455 kts | 238° |
| 2026-04-11 17:31 | 39.38109 | -34.18475 | 38735 ft | 455 kts | 238° |
| 2026-04-11 17:32 | 39.33947 | -34.24658 | 38735 ft | 455 kts | 238° |
| 2026-04-11 17:32 | 39.29820 | -34.30782 | 38735 ft | 455 kts | 238° |
| 2026-04-11 17:33 | 39.25638 | -34.36971 | 38735 ft | 455 kts | 238° |
| 2026-04-11 17:33 | 39.21502 | -34.43073 | 38734 ft | 455 kts | 237° |
| 2026-04-11 17:34 | 39.17334 | -34.49217 | 38734 ft | 455 kts | 237° |
| 2026-04-11 17:34 | 39.13162 | -34.55354 | 38734 ft | 455 kts | 237° |
| 2026-04-11 17:35 | 39.08980 | -34.61477 | 38735 ft | 456 kts | 237° |
| 2026-04-11 17:35 | 39.04773 | -34.67597 | 38735 ft | 456 kts | 237° |
| 2026-04-11 17:36 | 39.00580 | -34.73711 | 38735 ft | 455 kts | 237° |
| 2026-04-11 17:36 | 38.96425 | -34.79770 | 38735 ft | 454 kts | 237° |
| 2026-04-11 17:37 | 38.92244 | -34.85863 | 38735 ft | 455 kts | 237° |
| 2026-04-11 17:37 | 38.88054 | -34.91957 | 38735 ft | 455 kts | 236° |
| 2026-04-11 17:38 | 38.83862 | -34.98043 | 38735 ft | 455 kts | 236° |
| 2026-04-11 17:38 | 38.79665 | -35.04121 | 38735 ft | 454 kts | 236° |
| 2026-04-11 17:39 | 38.75477 | -35.10177 | 38735 ft | 454 kts | 236° |
| 2026-04-11 17:39 | 38.71274 | -35.16237 | 38735 ft | 454 kts | 236° |
| 2026-04-11 17:40 | 38.67077 | -35.22281 | 38728 ft | 454 kts | 236° |
| 2026-04-11 17:40 | 38.62886 | -35.28306 | 38726 ft | 454 kts | 236° |
| 2026-04-11 17:41 | 38.58714 | -35.34296 | 38725 ft | 453 kts | 236° |
| 2026-04-11 17:41 | 38.54517 | -35.40296 | 38726 ft | 453 kts | 236° |
| 2026-04-11 17:42 | 38.50302 | -35.46271 | 38725 ft | 452 kts | 236° |
| 2026-04-11 17:42 | 38.46095 | -35.52247 | 38726 ft | 452 kts | 236° |
| 2026-04-11 17:43 | 38.39808 | -35.61190 | 38725 ft | 451 kts | 235° |
| 2026-04-11 17:43 | 38.35617 | -35.67139 | 38726 ft | 451 kts | 235° |
| 2026-04-11 17:44 | 38.31426 | -35.73076 | 38720 ft | 451 kts | 235° |
| 2026-04-11 17:44 | 38.27237 | -35.79002 | 38717 ft | 450 kts | 235° |
| 2026-04-11 17:45 | 38.23046 | -35.84923 | 38717 ft | 450 kts | 235° |
| 2026-04-11 17:45 | 38.18881 | -35.90790 | 38717 ft | 450 kts | 235° |
| 2026-04-11 17:46 | 38.14691 | -35.96679 | 38717 ft | 450 kts | 235° |
| 2026-04-11 17:46 | 38.10495 | -36.02569 | 38715 ft | 449 kts | 235° |
| 2026-04-11 17:47 | 38.06295 | -36.08456 | 38706 ft | 449 kts | 235° |
| 2026-04-11 17:47 | 38.02006 | -36.14219 | 38896 ft | 453 kts | 227° |
| 2026-04-11 17:48 | 37.96445 | -36.18260 | 39200 ft | 474 kts | 205° |
| 2026-04-11 17:48 | 37.93209 | -36.19243 | 39315 ft | 484 kts | 193° |
| 2026-04-11 17:48 | 37.89823 | -36.19454 | 39446 ft | 492 kts | 182° |
| 2026-04-11 17:49 | 37.83090 | -36.17499 | 39686 ft | 505 kts | 159° |
| 2026-04-11 17:49 | 37.76951 | -36.13156 | 39933 ft | 503 kts | 159° |
| 2026-04-11 17:50 | 37.73699 | -36.11635 | 40059 ft | 496 kts | 170° |
| 2026-04-11 17:50 | 37.70323 | -36.10906 | 40193 ft | 487 kts | 182° |
| 2026-04-11 17:50 | 37.66976 | -36.10996 | 40313 ft | 477 kts | 194° |
| 2026-04-11 17:50 | 37.63778 | -36.11883 | 40435 ft | 465 kts | 206° |
| 2026-04-11 17:51 | 37.60877 | -36.13526 | 40634 ft | 451 kts | 218° |
| 2026-04-11 17:51 | 37.56397 | -36.18698 | 40706 ft | 430 kts | 243° |
| 2026-04-11 17:51 | 37.54942 | -36.21945 | 40711 ft | 424 kts | 251° |
| 2026-04-11 17:52 | 37.52643 | -36.28802 | 40709 ft | 426 kts | 254° |
| 2026-04-11 17:52 | 37.50471 | -36.35756 | 40708 ft | 427 kts | 254° |
| 2026-04-11 17:53 | 37.48305 | -36.42730 | 40699 ft | 428 kts | 254° |
| 2026-04-11 17:53 | 37.46150 | -36.49668 | 40689 ft | 429 kts | 254° |
| 2026-04-11 17:54 | 37.43977 | -36.56661 | 40683 ft | 429 kts | 254° |
| 2026-04-11 17:54 | 37.41801 | -36.63662 | 40680 ft | 430 kts | 253° |
| 2026-04-11 17:55 | 37.39620 | -36.70678 | 40681 ft | 431 kts | 253° |
| 2026-04-11 17:55 | 37.37080 | -36.77550 | 40679 ft | 438 kts | 244° |
| 2026-04-11 17:56 | 37.33542 | -36.83853 | 40680 ft | 444 kts | 236° |
| 2026-04-11 17:56 | 37.29511 | -36.89782 | 40680 ft | 447 kts | 234° |
| 2026-04-11 17:57 | 37.25364 | -36.95623 | 40680 ft | 448 kts | 233° |
| 2026-04-11 17:57 | 37.21231 | -37.01418 | 40671 ft | 448 kts | 234° |
| 2026-04-11 17:58 | 37.17096 | -37.07260 | 40671 ft | 448 kts | 234° |
| 2026-04-11 17:58 | 37.12971 | -37.13105 | 40671 ft | 448 kts | 234° |
| 2026-04-11 17:59 | 37.08836 | -37.18959 | 40671 ft | 448 kts | 234° |
| 2026-04-11 17:59 | 37.04697 | -37.24809 | 40671 ft | 449 kts | 233° |
| 2026-04-11 18:00 | 37.00554 | -37.30651 | 40671 ft | 449 kts | 233° |
| 2026-04-11 18:00 | 36.96403 | -37.36494 | 40665 ft | 449 kts | 233° |
| 2026-04-11 18:01 | 36.92249 | -37.42330 | 40663 ft | 449 kts | 233° |
| 2026-04-11 18:01 | 36.88090 | -37.48164 | 40659 ft | 450 kts | 233° |
| 2026-04-11 18:02 | 36.83919 | -37.54006 | 40660 ft | 452 kts | 233° |
| 2026-04-11 18:02 | 36.79726 | -37.59868 | 40660 ft | 453 kts | 233° |
| 2026-04-11 18:03 | 36.75525 | -37.65727 | 40659 ft | 453 kts | 233° |
| 2026-04-11 18:03 | 36.71344 | -37.71548 | 40662 ft | 453 kts | 232° |
| 2026-04-11 18:04 | 36.67124 | -37.77375 | 40653 ft | 453 kts | 232° |
| 2026-04-11 18:04 | 36.62904 | -37.83204 | 40651 ft | 453 kts | 232° |
| 2026-04-11 18:05 | 36.58691 | -37.89034 | 40652 ft | 453 kts | 232° |
| 2026-04-11 18:05 | 36.54475 | -37.94865 | 40653 ft | 453 kts | 232° |
| 2026-04-11 18:06 | 36.50261 | -38.00682 | 40653 ft | 453 kts | 232° |
| 2026-04-11 18:06 | 36.46042 | -38.06496 | 40650 ft | 453 kts | 232° |
| 2026-04-11 18:07 | 36.41818 | -38.12306 | 40644 ft | 452 kts | 232° |
| 2026-04-11 18:07 | 36.37630 | -38.18057 | 40644 ft | 452 kts | 232° |
| 2026-04-11 18:08 | 36.33409 | -38.23843 | 40644 ft | 452 kts | 232° |
| 2026-04-11 18:08 | 36.29182 | -38.29626 | 40643 ft | 452 kts | 232° |
| 2026-04-11 18:09 | 36.24956 | -38.35399 | 40643 ft | 452 kts | 232° |
| 2026-04-11 18:09 | 36.20725 | -38.41168 | 40643 ft | 452 kts | 232° |
| 2026-04-11 18:10 | 36.16488 | -38.46936 | 40637 ft | 452 kts | 231° |
| 2026-04-11 18:10 | 36.12243 | -38.52676 | 40634 ft | 452 kts | 231° |
| 2026-04-11 18:11 | 36.07987 | -38.58416 | 40634 ft | 452 kts | 231° |
| 2026-04-11 18:11 | 36.03768 | -38.64120 | 40635 ft | 452 kts | 231° |
| 2026-04-11 18:12 | 35.99517 | -38.69865 | 40635 ft | 452 kts | 231° |
| 2026-04-11 18:12 | 35.95267 | -38.75602 | 40635 ft | 453 kts | 231° |
| 2026-04-11 18:13 | 35.91004 | -38.81345 | 40634 ft | 454 kts | 231° |
| 2026-04-11 18:13 | 35.86736 | -38.87084 | 40624 ft | 454 kts | 231° |
| 2026-04-11 18:14 | 35.82463 | -38.92821 | 40625 ft | 454 kts | 231° |
| 2026-04-11 18:14 | 35.78190 | -38.98548 | 40625 ft | 454 kts | 231° |
| 2026-04-11 18:15 | 35.73910 | -39.04273 | 40625 ft | 454 kts | 231° |
| 2026-04-11 18:15 | 35.69627 | -39.09994 | 40628 ft | 454 kts | 231° |
| 2026-04-11 18:16 | 35.65373 | -39.15665 | 40622 ft | 454 kts | 230° |
| 2026-04-11 18:16 | 35.61082 | -39.21377 | 40619 ft | 455 kts | 230° |
| 2026-04-11 18:17 | 35.56779 | -39.27076 | 40619 ft | 455 kts | 230° |
| 2026-04-11 18:17 | 35.52465 | -39.32763 | 40616 ft | 455 kts | 230° |
| 2026-04-11 18:18 | 35.48860 | -39.37526 | 40618 ft | 455 kts | 230° |
| 2026-04-11 18:18 | 35.44556 | -39.43214 | 40616 ft | 454 kts | 230° |
| 2026-04-11 18:19 | 35.40281 | -39.48859 | 40612 ft | 455 kts | 230° |
| 2026-04-11 18:19 | 35.35969 | -39.54543 | 40593 ft | 455 kts | 230° |
| 2026-04-11 18:20 | 35.31651 | -39.60224 | 40593 ft | 455 kts | 230° |
| 2026-04-11 18:20 | 35.27333 | -39.65896 | 40594 ft | 455 kts | 230° |
| 2026-04-11 18:21 | 35.23012 | -39.71561 | 40595 ft | 455 kts | 230° |
| 2026-04-11 18:21 | 35.18691 | -39.77218 | 40595 ft | 455 kts | 230° |
| 2026-04-11 18:22 | 35.14360 | -39.82878 | 40595 ft | 456 kts | 230° |
| 2026-04-11 18:22 | 35.10025 | -39.88533 | 40591 ft | 456 kts | 230° |
| 2026-04-11 18:23 | 35.05713 | -39.94149 | 40594 ft | 456 kts | 230° |
| 2026-04-11 18:23 | 35.01371 | -39.99789 | 40593 ft | 456 kts | 230° |
| 2026-04-11 18:24 | 34.97006 | -40.05420 | 40584 ft | 456 kts | 229° |
| 2026-04-11 18:24 | 34.92648 | -40.11048 | 40579 ft | 457 kts | 229° |
| 2026-04-11 18:25 | 34.88420 | -40.16803 | 40578 ft | 454 kts | 236° |
| 2026-04-11 18:26 | 34.83257 | -40.26442 | 40580 ft | 453 kts | 241° |
| 2026-04-11 18:26 | 34.79945 | -40.32966 | 40579 ft | 453 kts | 240° |
| 2026-04-11 18:27 | 34.76590 | -40.39452 | 40580 ft | 453 kts | 240° |
| 2026-04-11 18:27 | 34.73205 | -40.45927 | 40578 ft | 454 kts | 240° |
| 2026-04-11 18:28 | 34.69812 | -40.52396 | 40572 ft | 454 kts | 240° |
| 2026-04-11 18:28 | 34.66438 | -40.58819 | 40571 ft | 454 kts | 240° |
| 2026-04-11 18:29 | 34.63040 | -40.65278 | 40570 ft | 454 kts | 240° |
| 2026-04-11 18:29 | 34.59636 | -40.71737 | 40570 ft | 454 kts | 240° |
| 2026-04-11 18:30 | 34.56225 | -40.78197 | 40570 ft | 454 kts | 240° |
| 2026-04-11 18:30 | 34.52807 | -40.84658 | 40569 ft | 454 kts | 240° |
| 2026-04-11 18:31 | 34.49388 | -40.91110 | 40563 ft | 455 kts | 240° |
| 2026-04-11 18:31 | 34.45969 | -40.97551 | 40561 ft | 455 kts | 240° |
| 2026-04-11 18:32 | 34.42529 | -41.03990 | 40562 ft | 455 kts | 239° |
| 2026-04-11 18:32 | 34.39078 | -41.10422 | 40560 ft | 456 kts | 239° |
| 2026-04-11 18:33 | 34.35633 | -41.16858 | 40554 ft | 456 kts | 239° |
| 2026-04-11 18:33 | 34.32187 | -41.23299 | 40553 ft | 456 kts | 239° |
| 2026-04-11 18:34 | 34.28736 | -41.29742 | 40553 ft | 456 kts | 239° |
| 2026-04-11 18:34 | 34.25279 | -41.36183 | 40550 ft | 457 kts | 239° |
| 2026-04-11 18:35 | 34.21839 | -41.42582 | 40552 ft | 457 kts | 239° |
| 2026-04-11 18:35 | 34.18369 | -41.49024 | 40551 ft | 457 kts | 239° |
| 2026-04-11 18:36 | 34.14894 | -41.55464 | 40547 ft | 458 kts | 239° |
| 2026-04-11 18:36 | 34.11413 | -41.61904 | 40540 ft | 458 kts | 239° |
| 2026-04-11 18:37 | 34.07926 | -41.68342 | 40542 ft | 458 kts | 239° |
| 2026-04-11 18:37 | 34.04436 | -41.74776 | 40540 ft | 459 kts | 239° |
| 2026-04-11 18:38 | 34.00936 | -41.81216 | 40543 ft | 459 kts | 239° |
| 2026-04-11 18:38 | 33.97425 | -41.87643 | 40541 ft | 459 kts | 239° |
| 2026-04-11 18:39 | 33.93901 | -41.94056 | 40536 ft | 459 kts | 239° |
| 2026-04-11 18:39 | 33.90402 | -42.00442 | 40528 ft | 459 kts | 239° |
| 2026-04-11 18:40 | 33.86884 | -42.06867 | 40541 ft | 460 kts | 239° |
| 2026-04-11 18:40 | 33.83367 | -42.13281 | 40536 ft | 460 kts | 239° |
| 2026-04-11 18:41 | 33.79840 | -42.19702 | 40531 ft | 460 kts | 239° |
| 2026-04-11 18:41 | 33.76312 | -42.26114 | 40528 ft | 460 kts | 239° |
| 2026-04-11 18:42 | 33.72801 | -42.32482 | 40530 ft | 460 kts | 239° |
| 2026-04-11 18:42 | 33.69260 | -42.38893 | 40528 ft | 460 kts | 239° |
| 2026-04-11 18:43 | 33.65720 | -42.45293 | 40524 ft | 460 kts | 239° |
| 2026-04-11 18:43 | 33.62171 | -42.51697 | 40526 ft | 461 kts | 239° |
| 2026-04-11 18:44 | 33.58616 | -42.58099 | 40524 ft | 461 kts | 239° |
| 2026-04-11 18:44 | 33.55058 | -42.64497 | 40526 ft | 461 kts | 239° |
| 2026-04-11 18:45 | 33.51488 | -42.70886 | 40522 ft | 461 kts | 239° |
| 2026-04-11 18:45 | 33.47928 | -42.77220 | 40510 ft | 461 kts | 239° |
| 2026-04-11 18:46 | 33.44350 | -42.83600 | 40512 ft | 461 kts | 239° |
| 2026-04-11 18:46 | 33.40780 | -42.89973 | 40524 ft | 461 kts | 239° |
| 2026-04-11 18:47 | 33.37199 | -42.96356 | 40511 ft | 461 kts | 239° |
| 2026-04-11 18:47 | 33.33622 | -43.02722 | 40512 ft | 461 kts | 239° |
| 2026-04-11 18:48 | 33.30038 | -43.09087 | 40521 ft | 461 kts | 239° |
| 2026-04-11 18:48 | 33.26451 | -43.15448 | 40508 ft | 461 kts | 239° |
| 2026-04-11 18:49 | 33.22862 | -43.21800 | 40513 ft | 461 kts | 239° |
| 2026-04-11 18:49 | 33.19292 | -43.28107 | 40509 ft | 461 kts | 239° |
| 2026-04-11 18:50 | 33.15692 | -43.34459 | 40511 ft | 462 kts | 239° |
| 2026-04-11 18:50 | 33.12082 | -43.40816 | 40506 ft | 462 kts | 239° |
| 2026-04-11 18:51 | 33.08476 | -43.47155 | 40509 ft | 462 kts | 239° |
| 2026-04-11 18:51 | 33.04858 | -43.53486 | 40496 ft | 462 kts | 239° |
| 2026-04-11 18:52 | 33.01221 | -43.59813 | 40497 ft | 462 kts | 239° |
| 2026-04-11 18:52 | 32.97591 | -43.66145 | 40497 ft | 463 kts | 239° |
| 2026-04-11 18:53 | 32.93960 | -43.72482 | 40497 ft | 463 kts | 239° |
| 2026-04-11 18:53 | 32.90348 | -43.78779 | 40496 ft | 464 kts | 239° |
| 2026-04-11 18:54 | 32.86702 | -43.85124 | 40497 ft | 464 kts | 239° |
| 2026-04-11 18:54 | 32.83052 | -43.91463 | 40497 ft | 464 kts | 239° |
| 2026-04-11 18:55 | 32.79397 | -43.97800 | 40496 ft | 465 kts | 239° |
| 2026-04-11 18:55 | 32.75734 | -44.04141 | 40490 ft | 465 kts | 239° |
| 2026-04-11 18:56 | 32.72075 | -44.10464 | 40488 ft | 464 kts | 239° |
| 2026-04-11 18:56 | 32.68410 | -44.16787 | 40487 ft | 465 kts | 239° |
| 2026-04-11 18:57 | 32.64742 | -44.23105 | 40488 ft | 465 kts | 239° |
| 2026-04-11 18:57 | 32.61068 | -44.29422 | 40488 ft | 465 kts | 239° |
| 2026-04-11 18:58 | 32.57377 | -44.35734 | 40489 ft | 466 kts | 239° |
| 2026-04-11 18:58 | 32.53676 | -44.42036 | 40488 ft | 466 kts | 239° |
| 2026-04-11 18:59 | 32.49980 | -44.48345 | 40479 ft | 466 kts | 239° |
| 2026-04-11 18:59 | 32.46313 | -44.54605 | 40478 ft | 465 kts | 239° |
| 2026-04-11 19:00 | 32.42620 | -44.60904 | 40478 ft | 465 kts | 239° |
| 2026-04-11 19:00 | 32.38927 | -44.67190 | 40478 ft | 465 kts | 239° |
| 2026-04-11 19:01 | 32.35233 | -44.73468 | 40479 ft | 464 kts | 239° |
| 2026-04-11 19:01 | 32.31536 | -44.79739 | 40478 ft | 464 kts | 238° |
| 2026-04-11 19:02 | 32.27844 | -44.85991 | 40478 ft | 463 kts | 238° |
| 2026-04-11 19:02 | 32.24182 | -44.92184 | 40478 ft | 463 kts | 238° |
| 2026-04-11 19:03 | 32.20482 | -44.98430 | 40469 ft | 463 kts | 238° |
| 2026-04-11 19:03 | 32.16785 | -45.04661 | 40469 ft | 462 kts | 238° |
| 2026-04-11 19:04 | 32.13095 | -45.10869 | 40469 ft | 462 kts | 238° |
| 2026-04-11 19:04 | 32.09395 | -45.17059 | 40469 ft | 461 kts | 238° |
| 2026-04-11 19:05 | 32.06316 | -45.22191 | 40469 ft | 461 kts | 238° |
| 2026-04-11 19:05 | 32.02619 | -45.28367 | 40469 ft | 461 kts | 238° |
| 2026-04-11 19:06 | 31.98928 | -45.34536 | 40469 ft | 460 kts | 238° |
| 2026-04-11 19:06 | 31.95226 | -45.40719 | 40469 ft | 462 kts | 238° |
| 2026-04-11 19:07 | 31.91515 | -45.46904 | 40460 ft | 462 kts | 238° |
| 2026-04-11 19:07 | 31.87808 | -45.53072 | 40460 ft | 461 kts | 238° |
| 2026-04-11 19:08 | 31.84119 | -45.59200 | 40461 ft | 461 kts | 238° |
| 2026-04-11 19:08 | 31.80404 | -45.65361 | 40460 ft | 461 kts | 238° |
| 2026-04-11 19:09 | 31.76695 | -45.71502 | 40460 ft | 460 kts | 238° |
| 2026-04-11 19:09 | 31.72988 | -45.77632 | 40460 ft | 460 kts | 238° |
| 2026-04-11 19:10 | 31.69277 | -45.83757 | 40460 ft | 460 kts | 238° |
| 2026-04-11 19:10 | 31.65565 | -45.89874 | 40460 ft | 460 kts | 238° |
| 2026-04-11 19:11 | 31.61842 | -45.95983 | 40450 ft | 460 kts | 238° |
| 2026-04-11 19:11 | 31.58127 | -46.02048 | 40450 ft | 460 kts | 238° |
| 2026-04-11 19:12 | 31.54397 | -46.08151 | 40448 ft | 460 kts | 238° |
| 2026-04-11 19:12 | 31.50674 | -46.14246 | 40452 ft | 460 kts | 238° |
| 2026-04-11 19:13 | 31.46953 | -46.20331 | 40449 ft | 460 kts | 238° |
| 2026-04-11 19:13 | 31.43223 | -46.26421 | 40451 ft | 460 kts | 238° |
| 2026-04-11 19:14 | 31.39492 | -46.32502 | 40451 ft | 460 kts | 238° |
| 2026-04-11 19:14 | 31.35758 | -46.38579 | 40450 ft | 460 kts | 238° |
| 2026-04-11 19:15 | 31.32043 | -46.44615 | 40452 ft | 460 kts | 238° |
| 2026-04-11 19:15 | 31.28299 | -46.50689 | 40443 ft | 460 kts | 238° |
| 2026-04-11 19:16 | 31.24550 | -46.56761 | 40438 ft | 461 kts | 238° |
| 2026-04-11 19:16 | 31.20796 | -46.62831 | 40444 ft | 461 kts | 237° |
| 2026-04-11 19:17 | 31.17034 | -46.68906 | 40444 ft | 461 kts | 237° |
| 2026-04-11 19:17 | 31.13269 | -46.74959 | 40434 ft | 461 kts | 237° |
| 2026-04-11 19:18 | 31.09491 | -46.81002 | 40433 ft | 461 kts | 237° |
| 2026-04-11 19:18 | 31.05723 | -46.87044 | 40433 ft | 461 kts | 237° |
| 2026-04-11 19:19 | 31.01952 | -46.93094 | 40433 ft | 460 kts | 237° |
| 2026-04-11 19:19 | 30.98211 | -46.99088 | 40433 ft | 460 kts | 237° |
| 2026-04-11 19:20 | 30.94443 | -47.05116 | 40440 ft | 460 kts | 237° |
| 2026-04-11 19:20 | 30.90672 | -47.11139 | 40433 ft | 460 kts | 237° |
| 2026-04-11 19:21 | 30.86902 | -47.17153 | 40452 ft | 460 kts | 237° |
| 2026-04-11 19:21 | 30.83128 | -47.23163 | 40449 ft | 460 kts | 237° |
| 2026-04-11 19:22 | 30.79345 | -47.29176 | 40451 ft | 460 kts | 237° |
| 2026-04-11 19:22 | 30.75561 | -47.35184 | 40450 ft | 460 kts | 237° |
| 2026-04-11 19:23 | 30.71779 | -47.41179 | 40449 ft | 460 kts | 237° |
| 2026-04-11 19:23 | 30.68015 | -47.47136 | 40452 ft | 460 kts | 237° |
| 2026-04-11 19:24 | 30.64216 | -47.53125 | 40449 ft | 460 kts | 237° |
| 2026-04-11 19:24 | 30.60409 | -47.59097 | 40451 ft | 460 kts | 237° |
| 2026-04-11 19:25 | 30.56605 | -47.65076 | 40452 ft | 461 kts | 237° |
| 2026-04-11 19:25 | 30.52800 | -47.71059 | 40442 ft | 461 kts | 237° |
| 2026-04-11 19:26 | 30.48989 | -47.77046 | 40445 ft | 461 kts | 237° |
| 2026-04-11 19:26 | 30.45172 | -47.83033 | 40439 ft | 461 kts | 237° |
| 2026-04-11 19:27 | 30.41357 | -47.89008 | 40442 ft | 461 kts | 237° |
| 2026-04-11 19:27 | 30.37535 | -47.94984 | 40442 ft | 461 kts | 237° |
| 2026-04-11 19:28 | 30.33707 | -48.00962 | 40441 ft | 462 kts | 237° |
| 2026-04-11 19:28 | 30.29881 | -48.06927 | 40441 ft | 461 kts | 236° |
| 2026-04-11 19:29 | 30.26054 | -48.12883 | 40440 ft | 461 kts | 236° |
| 2026-04-11 19:29 | 30.22221 | -48.18842 | 40442 ft | 462 kts | 236° |
| 2026-04-11 19:30 | 30.18414 | -48.24750 | 40433 ft | 461 kts | 236° |
| 2026-04-11 19:30 | 30.14546 | -48.30730 | 40437 ft | 461 kts | 236° |
| 2026-04-11 19:31 | 30.10718 | -48.36619 | 40432 ft | 461 kts | 236° |
| 2026-04-11 19:31 | 30.06877 | -48.42541 | 40432 ft | 461 kts | 236° |
| 2026-04-11 19:32 | 30.03031 | -48.48473 | 40432 ft | 460 kts | 236° |
| 2026-04-11 19:32 | 29.99195 | -48.54385 | 40432 ft | 460 kts | 236° |
| 2026-04-11 19:33 | 29.95347 | -48.60306 | 40434 ft | 462 kts | 236° |
| 2026-04-11 19:33 | 29.91488 | -48.66234 | 40431 ft | 462 kts | 236° |
| 2026-04-11 19:34 | 29.87631 | -48.72149 | 40431 ft | 462 kts | 236° |
| 2026-04-11 19:34 | 29.83788 | -48.78034 | 40424 ft | 462 kts | 236° |
| 2026-04-11 19:35 | 29.79929 | -48.83937 | 40424 ft | 461 kts | 236° |
| 2026-04-11 19:35 | 29.76066 | -48.89836 | 40423 ft | 461 kts | 236° |
| 2026-04-11 19:36 | 29.72202 | -48.95729 | 40424 ft | 461 kts | 236° |
| 2026-04-11 19:36 | 29.68334 | -49.01619 | 40423 ft | 461 kts | 236° |
| 2026-04-11 19:37 | 29.62518 | -49.10426 | 40423 ft | 460 kts | 236° |
| 2026-04-11 19:37 | 29.58643 | -49.16282 | 40423 ft | 460 kts | 235° |
| 2026-04-11 19:38 | 29.54802 | -49.22097 | 40423 ft | 460 kts | 236° |
| 2026-04-11 19:38 | 29.50927 | -49.27959 | 40423 ft | 460 kts | 235° |
| 2026-04-11 19:39 | 29.47046 | -49.33792 | 40414 ft | 460 kts | 234° |
| 2026-04-11 19:39 | 29.42967 | -49.39453 | 40414 ft | 460 kts | 232° |
| 2026-04-11 19:40 | 29.38802 | -49.45045 | 40414 ft | 460 kts | 232° |
| 2026-04-11 19:40 | 29.34646 | -49.50630 | 40414 ft | 460 kts | 232° |
| 2026-04-11 19:41 | 29.30519 | -49.56193 | 40414 ft | 460 kts | 232° |
| 2026-04-11 19:41 | 29.26372 | -49.61783 | 40414 ft | 460 kts | 232° |
| 2026-04-11 19:42 | 29.22222 | -49.67371 | 40414 ft | 460 kts | 232° |
| 2026-04-11 19:42 | 29.18069 | -49.72954 | 40414 ft | 460 kts | 232° |
| 2026-04-11 19:43 | 29.13911 | -49.78537 | 40414 ft | 461 kts | 232° |
| 2026-04-11 19:43 | 29.09749 | -49.84116 | 40414 ft | 461 kts | 232° |
| 2026-04-11 19:44 | 29.05587 | -49.89688 | 40407 ft | 461 kts | 232° |
| 2026-04-11 19:44 | 29.01416 | -49.95264 | 40405 ft | 461 kts | 232° |
| 2026-04-11 19:45 | 28.97241 | -50.00838 | 40405 ft | 462 kts | 232° |
| 2026-04-11 19:45 | 28.93101 | -50.06355 | 40405 ft | 458 kts | 232° |
| 2026-04-11 19:46 | 28.88940 | -50.11866 | 40405 ft | 458 kts | 232° |
| 2026-04-11 19:46 | 28.84781 | -50.17379 | 40405 ft | 459 kts | 232° |
| 2026-04-11 19:47 | 28.80619 | -50.22902 | 40405 ft | 459 kts | 232° |
| 2026-04-11 19:47 | 28.76458 | -50.28421 | 40405 ft | 458 kts | 232° |
| 2026-04-11 19:48 | 28.72297 | -50.33933 | 40405 ft | 459 kts | 232° |
| 2026-04-11 19:48 | 28.68131 | -50.39443 | 40405 ft | 459 kts | 232° |
| 2026-04-11 19:49 | 28.63959 | -50.44953 | 40405 ft | 459 kts | 232° |
| 2026-04-11 19:49 | 28.59811 | -50.50425 | 40399 ft | 459 kts | 232° |
| 2026-04-11 19:50 | 28.55636 | -50.55924 | 40396 ft | 459 kts | 232° |
| 2026-04-11 19:50 | 28.51459 | -50.61420 | 40396 ft | 459 kts | 232° |
| 2026-04-11 19:51 | 28.47281 | -50.66909 | 40396 ft | 459 kts | 232° |
| 2026-04-11 19:51 | 28.43103 | -50.72390 | 40396 ft | 459 kts | 232° |
| 2026-04-11 19:52 | 28.39635 | -50.76935 | 40396 ft | 458 kts | 232° |
| 2026-04-11 19:52 | 28.35441 | -50.82401 | 40396 ft | 458 kts | 232° |
| 2026-04-11 19:53 | 28.31252 | -50.87856 | 40396 ft | 458 kts | 232° |
| 2026-04-11 19:53 | 28.27067 | -50.93313 | 40396 ft | 458 kts | 232° |
| 2026-04-11 19:54 | 28.22890 | -50.98759 | 40396 ft | 457 kts | 232° |
| 2026-04-11 19:54 | 28.18744 | -51.04158 | 40396 ft | 457 kts | 232° |
| 2026-04-11 19:55 | 28.14560 | -51.09600 | 40396 ft | 457 kts | 232° |
| 2026-04-11 19:55 | 28.10385 | -51.15021 | 40396 ft | 456 kts | 232° |
| 2026-04-11 19:56 | 28.06216 | -51.20429 | 40387 ft | 456 kts | 232° |
| 2026-04-11 19:56 | 28.02048 | -51.25828 | 40388 ft | 455 kts | 232° |
| 2026-04-11 19:57 | 27.97876 | -51.31224 | 40385 ft | 456 kts | 232° |
| 2026-04-11 19:57 | 27.93691 | -51.36634 | 40381 ft | 457 kts | 232° |
| 2026-04-11 19:58 | 27.89500 | -51.42041 | 40377 ft | 457 kts | 232° |
| 2026-04-11 19:58 | 27.85305 | -51.47446 | 40377 ft | 457 kts | 232° |
| 2026-04-11 19:59 | 27.81132 | -51.52798 | 40376 ft | 456 kts | 232° |
| 2026-04-11 19:59 | 27.76933 | -51.58173 | 40376 ft | 456 kts | 232° |
| 2026-04-11 20:00 | 27.72737 | -51.63553 | 40377 ft | 456 kts | 232° |
| 2026-04-11 20:00 | 27.68543 | -51.68930 | 40379 ft | 456 kts | 232° |
| 2026-04-11 20:01 | 27.64353 | -51.74296 | 40372 ft | 456 kts | 232° |
| 2026-04-11 20:01 | 27.60160 | -51.79659 | 40369 ft | 456 kts | 232° |
| 2026-04-11 20:02 | 27.55962 | -51.85021 | 40368 ft | 456 kts | 232° |
| 2026-04-11 20:02 | 27.51783 | -51.90352 | 40367 ft | 456 kts | 231° |
| 2026-04-11 20:03 | 27.47583 | -51.95703 | 40368 ft | 456 kts | 231° |
| 2026-04-11 20:03 | 27.43376 | -52.01057 | 40368 ft | 456 kts | 231° |
| 2026-04-11 20:04 | 27.39167 | -52.06406 | 40368 ft | 455 kts | 231° |
| 2026-04-11 20:04 | 27.34977 | -52.11724 | 40371 ft | 454 kts | 231° |
| 2026-04-11 20:05 | 27.30781 | -52.17044 | 40368 ft | 455 kts | 231° |
| 2026-04-11 20:05 | 27.26596 | -52.22329 | 40363 ft | 455 kts | 231° |
| 2026-04-11 20:06 | 27.22378 | -52.27639 | 40359 ft | 455 kts | 231° |
| 2026-04-11 20:06 | 27.18163 | -52.32954 | 40359 ft | 455 kts | 231° |
| 2026-04-11 20:07 | 27.13954 | -52.38263 | 40358 ft | 455 kts | 231° |
| 2026-04-11 20:07 | 27.09746 | -52.43565 | 40359 ft | 455 kts | 231° |
| 2026-04-11 20:08 | 27.05532 | -52.48868 | 40358 ft | 455 kts | 231° |
| 2026-04-11 20:08 | 27.01319 | -52.54163 | 40357 ft | 455 kts | 231° |
| 2026-04-11 20:09 | 26.97131 | -52.59421 | 40359 ft | 455 kts | 231° |
| 2026-04-11 20:09 | 26.92918 | -52.64703 | 40358 ft | 455 kts | 231° |
| 2026-04-11 20:10 | 26.90805 | -52.67350 | 40359 ft | 455 kts | 231° |
| 2026-04-11 20:10 | 26.90093 | -52.68241 | 40358 ft | 455 kts | 231° |
| 2026-04-11 20:11 | 26.80248 | -52.80549 | 40298 ft | 455 kts | 231° |
| 2026-04-11 20:11 | 26.76026 | -52.85818 | 40295 ft | 455 kts | 231° |
| 2026-04-11 20:12 | 26.71794 | -52.91083 | 40293 ft | 454 kts | 231° |
| 2026-04-11 20:12 | 26.67561 | -52.96327 | 40295 ft | 454 kts | 231° |
| 2026-04-11 20:13 | 26.63354 | -53.01546 | 40294 ft | 454 kts | 231° |
| 2026-04-11 20:13 | 26.59127 | -53.06793 | 40294 ft | 454 kts | 231° |
| 2026-04-11 20:14 | 26.54899 | -53.12037 | 40295 ft | 454 kts | 231° |
| 2026-04-11 20:14 | 26.50667 | -53.17279 | 40295 ft | 454 kts | 231° |
| 2026-04-11 20:15 | 26.46443 | -53.22505 | 40295 ft | 453 kts | 231° |
| 2026-04-11 20:15 | 26.42218 | -53.27726 | 40295 ft | 453 kts | 231° |
| 2026-04-11 20:16 | 26.37998 | -53.32936 | 40293 ft | 452 kts | 230° |
| 2026-04-11 20:16 | 26.33774 | -53.38144 | 40285 ft | 452 kts | 230° |
| 2026-04-11 20:17 | 26.29572 | -53.43318 | 40283 ft | 452 kts | 230° |
| 2026-04-11 20:17 | 26.25348 | -53.48513 | 40284 ft | 452 kts | 230° |
| 2026-04-11 20:18 | 26.21129 | -53.53696 | 40285 ft | 452 kts | 230° |
| 2026-04-11 20:18 | 26.16905 | -53.58876 | 40286 ft | 452 kts | 230° |
| 2026-04-11 20:19 | 26.12665 | -53.64048 | 40285 ft | 452 kts | 230° |
| 2026-04-11 20:19 | 26.08431 | -53.69219 | 40286 ft | 451 kts | 230° |
| 2026-04-11 20:20 | 26.04204 | -53.74385 | 40280 ft | 451 kts | 230° |
| 2026-04-11 20:20 | 26.00005 | -53.79513 | 40274 ft | 451 kts | 230° |
| 2026-04-11 20:21 | 25.95774 | -53.84676 | 40275 ft | 451 kts | 230° |
| 2026-04-11 20:21 | 25.91548 | -53.89825 | 40276 ft | 451 kts | 230° |
| 2026-04-11 20:22 | 25.87313 | -53.94979 | 40277 ft | 451 kts | 230° |
| 2026-04-11 20:22 | 25.83077 | -54.00129 | 40275 ft | 451 kts | 230° |
| 2026-04-11 20:23 | 25.78840 | -54.05275 | 40275 ft | 451 kts | 230° |
| 2026-04-11 20:23 | 25.74628 | -54.10383 | 40275 ft | 451 kts | 230° |
| 2026-04-11 20:24 | 25.70388 | -54.15520 | 40275 ft | 451 kts | 230° |
| 2026-04-11 20:24 | 25.66150 | -54.20650 | 40276 ft | 451 kts | 230° |
| 2026-04-11 20:25 | 25.61912 | -54.25773 | 40276 ft | 451 kts | 230° |
| 2026-04-11 20:25 | 25.57654 | -54.30893 | 40275 ft | 451 kts | 230° |
| 2026-04-11 20:26 | 25.53404 | -54.36002 | 40276 ft | 451 kts | 230° |
| 2026-04-11 20:26 | 25.49158 | -54.41114 | 40276 ft | 451 kts | 230° |
| 2026-04-11 20:27 | 25.44914 | -54.46219 | 40275 ft | 450 kts | 230° |
| 2026-04-11 20:27 | 25.40670 | -54.51321 | 40278 ft | 451 kts | 230° |
| 2026-04-11 20:28 | 25.36425 | -54.56419 | 40278 ft | 450 kts | 230° |
| 2026-04-11 20:28 | 25.32180 | -54.61510 | 40276 ft | 450 kts | 230° |
| 2026-04-11 20:29 | 25.27960 | -54.66565 | 40275 ft | 450 kts | 230° |
| 2026-04-11 20:29 | 25.23711 | -54.71649 | 40274 ft | 450 kts | 230° |
| 2026-04-11 20:30 | 25.19461 | -54.76729 | 40275 ft | 450 kts | 230° |
| 2026-04-11 20:30 | 25.15209 | -54.81806 | 40276 ft | 450 kts | 230° |
| 2026-04-11 20:31 | 25.10960 | -54.86873 | 40277 ft | 449 kts | 230° |
| 2026-04-11 20:31 | 25.06711 | -54.91936 | 40277 ft | 450 kts | 230° |
| 2026-04-11 20:32 | 25.02453 | -54.96991 | 40274 ft | 450 kts | 230° |
| 2026-04-11 20:32 | 24.98299 | -55.02086 | 40276 ft | 449 kts | 233° |
| 2026-04-11 20:33 | 24.94292 | -55.07362 | 40275 ft | 448 kts | 233° |
| 2026-04-11 20:33 | 24.90316 | -55.12653 | 40277 ft | 448 kts | 233° |
| 2026-04-11 20:34 | 24.86328 | -55.17934 | 40275 ft | 449 kts | 233° |
| 2026-04-11 20:34 | 24.82328 | -55.23209 | 40274 ft | 448 kts | 233° |
| 2026-04-11 20:35 | 24.78333 | -55.28468 | 40276 ft | 448 kts | 233° |
| 2026-04-11 20:35 | 24.74333 | -55.33729 | 40277 ft | 448 kts | 233° |
| 2026-04-11 20:36 | 24.70338 | -55.38977 | 40276 ft | 448 kts | 233° |
| 2026-04-11 20:36 | 24.66335 | -55.44231 | 40275 ft | 448 kts | 233° |
| 2026-04-11 20:37 | 24.62334 | -55.49475 | 40276 ft | 448 kts | 233° |
| 2026-04-11 20:37 | 24.58334 | -55.54713 | 40277 ft | 448 kts | 233° |
| 2026-04-11 20:38 | 24.54329 | -55.59952 | 40276 ft | 448 kts | 233° |
| 2026-04-11 20:38 | 24.50319 | -55.65190 | 40276 ft | 448 kts | 233° |
| 2026-04-11 20:39 | 24.46337 | -55.70384 | 40276 ft | 448 kts | 233° |
| 2026-04-11 20:39 | 24.42313 | -55.75606 | 40277 ft | 447 kts | 233° |
| 2026-04-11 20:40 | 24.38297 | -55.80824 | 40277 ft | 447 kts | 233° |
| 2026-04-11 20:40 | 24.34290 | -55.86033 | 40275 ft | 447 kts | 233° |
| 2026-04-11 20:41 | 24.30954 | -55.90368 | 40278 ft | 447 kts | 233° |
| 2026-04-11 20:41 | 24.26946 | -55.95573 | 40275 ft | 447 kts | 233° |
| 2026-04-11 20:42 | 24.22931 | -56.00780 | 40275 ft | 447 kts | 233° |
| 2026-04-11 20:42 | 24.18918 | -56.05980 | 40277 ft | 447 kts | 233° |
| 2026-04-11 20:43 | 24.14900 | -56.11179 | 40276 ft | 447 kts | 233° |
| 2026-04-11 20:43 | 24.10882 | -56.16374 | 40275 ft | 447 kts | 233° |
| 2026-04-11 20:44 | 24.06860 | -56.21567 | 40268 ft | 447 kts | 233° |
| 2026-04-11 20:44 | 24.02841 | -56.26751 | 40265 ft | 446 kts | 233° |
| 2026-04-11 20:45 | 23.98846 | -56.31899 | 40267 ft | 446 kts | 233° |
| 2026-04-11 20:45 | 23.94818 | -56.37084 | 40267 ft | 446 kts | 233° |
| 2026-04-11 20:46 | 23.90790 | -56.42251 | 40266 ft | 446 kts | 233° |
| 2026-04-11 20:47 | 23.84742 | -56.49992 | 40268 ft | 446 kts | 233° |
| 2026-04-11 20:47 | 23.80718 | -56.55151 | 40263 ft | 446 kts | 233° |
| 2026-04-11 20:48 | 23.76726 | -56.60264 | 40264 ft | 445 kts | 233° |
| 2026-04-11 20:48 | 23.72708 | -56.65407 | 40267 ft | 445 kts | 233° |
| 2026-04-11 20:49 | 23.68685 | -56.70551 | 40267 ft | 445 kts | 233° |
| 2026-04-11 20:49 | 23.64658 | -56.75694 | 40270 ft | 445 kts | 233° |
| 2026-04-11 20:50 | 23.60633 | -56.80829 | 40267 ft | 445 kts | 233° |
| 2026-04-11 20:50 | 23.56613 | -56.85952 | 40267 ft | 444 kts | 233° |
| 2026-04-11 20:51 | 23.52593 | -56.91070 | 40266 ft | 444 kts | 233° |
| 2026-04-11 20:51 | 23.48566 | -56.96192 | 40271 ft | 444 kts | 233° |
| 2026-04-11 20:52 | 23.44570 | -57.01269 | 40267 ft | 444 kts | 233° |
| 2026-04-11 20:52 | 23.40545 | -57.06378 | 40269 ft | 444 kts | 233° |
| 2026-04-11 20:53 | 23.36512 | -57.11478 | 40265 ft | 444 kts | 233° |
| 2026-04-11 20:53 | 23.32478 | -57.16569 | 40268 ft | 444 kts | 233° |
| 2026-04-11 20:54 | 23.28448 | -57.21663 | 40265 ft | 444 kts | 233° |
| 2026-04-11 20:54 | 23.24426 | -57.26745 | 40263 ft | 443 kts | 233° |
| 2026-04-11 20:55 | 23.20405 | -57.31824 | 40267 ft | 443 kts | 233° |
| 2026-04-11 20:55 | 23.16399 | -57.36878 | 40266 ft | 444 kts | 233° |
| 2026-04-11 20:56 | 23.12363 | -57.41964 | 40267 ft | 444 kts | 233° |
| 2026-04-11 20:56 | 23.08327 | -57.47045 | 40267 ft | 444 kts | 232° |
| 2026-04-11 20:57 | 23.04285 | -57.52129 | 40267 ft | 444 kts | 232° |
| 2026-04-11 20:57 | 23.00248 | -57.57200 | 40262 ft | 443 kts | 232° |
| 2026-04-11 20:58 | 22.96216 | -57.62261 | 40255 ft | 443 kts | 232° |
| 2026-04-11 20:58 | 22.92181 | -57.67321 | 40258 ft | 443 kts | 233° |
| 2026-04-11 20:59 | 22.88166 | -57.72350 | 40255 ft | 444 kts | 232° |
| 2026-04-11 20:59 | 22.84121 | -57.77411 | 40261 ft | 444 kts | 232° |
| 2026-04-11 21:00 | 22.80065 | -57.82460 | 40258 ft | 444 kts | 232° |
| 2026-04-11 21:00 | 22.76014 | -57.87507 | 40258 ft | 444 kts | 232° |
| 2026-04-11 21:01 | 22.71967 | -57.92555 | 40254 ft | 444 kts | 232° |
| 2026-04-11 21:01 | 22.67916 | -57.97604 | 40252 ft | 444 kts | 232° |
| 2026-04-11 21:02 | 22.63886 | -58.02624 | 40260 ft | 444 kts | 232° |
| 2026-04-11 21:02 | 22.59842 | -58.07654 | 40259 ft | 442 kts | 232° |
| 2026-04-11 21:03 | 22.55802 | -58.12674 | 40255 ft | 442 kts | 232° |
| 2026-04-11 21:03 | 22.51759 | -58.17694 | 40260 ft | 442 kts | 232° |
| 2026-04-11 21:04 | 22.47713 | -58.22713 | 40258 ft | 442 kts | 232° |
| 2026-04-11 21:04 | 22.43669 | -58.27724 | 40255 ft | 442 kts | 232° |
| 2026-04-11 21:05 | 22.39619 | -58.32738 | 40258 ft | 442 kts | 232° |
| 2026-04-11 21:05 | 22.35570 | -58.37745 | 40246 ft | 442 kts | 232° |
| 2026-04-11 21:06 | 22.31519 | -58.42750 | 40251 ft | 442 kts | 232° |
| 2026-04-11 21:06 | 22.27462 | -58.47748 | 40252 ft | 442 kts | 232° |
| 2026-04-11 21:07 | 22.23394 | -58.52746 | 40246 ft | 442 kts | 232° |
| 2026-04-11 21:07 | 22.19332 | -58.57744 | 40248 ft | 442 kts | 232° |
| 2026-04-11 21:08 | 22.15304 | -58.62702 | 40247 ft | 442 kts | 232° |
| 2026-04-11 21:08 | 22.11241 | -58.67699 | 40246 ft | 442 kts | 232° |
| 2026-04-11 21:09 | 22.07180 | -58.72687 | 40245 ft | 442 kts | 232° |
| 2026-04-11 21:09 | 22.03120 | -58.77670 | 40252 ft | 442 kts | 231° |
| 2026-04-11 21:10 | 21.99057 | -58.82652 | 40242 ft | 442 kts | 231° |
| 2026-04-11 21:10 | 21.94995 | -58.87627 | 40249 ft | 441 kts | 232° |
| 2026-04-11 21:11 | 21.90941 | -58.92590 | 40244 ft | 441 kts | 232° |
| 2026-04-11 21:11 | 21.86885 | -58.97548 | 40250 ft | 441 kts | 232° |
| 2026-04-11 21:12 | 21.82853 | -59.02474 | 40249 ft | 441 kts | 232° |
| 2026-04-11 21:12 | 21.78796 | -59.07426 | 40249 ft | 441 kts | 231° |
| 2026-04-11 21:13 | 21.74733 | -59.12379 | 40247 ft | 442 kts | 231° |
| 2026-04-11 21:13 | 21.70661 | -59.17320 | 40249 ft | 442 kts | 231° |
| 2026-04-11 21:14 | 21.66589 | -59.22264 | 40243 ft | 442 kts | 231° |
| 2026-04-11 21:14 | 21.62516 | -59.27213 | 40231 ft | 442 kts | 231° |
| 2026-04-11 21:15 | 21.58445 | -59.32157 | 40230 ft | 442 kts | 231° |
| 2026-04-11 21:15 | 21.54376 | -59.37096 | 40247 ft | 441 kts | 231° |
| 2026-04-11 21:16 | 21.50308 | -59.42029 | 40243 ft | 441 kts | 231° |
| 2026-04-11 21:16 | 21.46237 | -59.46960 | 40241 ft | 441 kts | 231° |
| 2026-04-11 21:17 | 21.42189 | -59.51859 | 40230 ft | 441 kts | 231° |
| 2026-04-11 21:17 | 21.38122 | -59.56778 | 40232 ft | 440 kts | 231° |
| 2026-04-11 21:18 | 21.34010 | -59.61660 | 40248 ft | 441 kts | 230° |
| 2026-04-11 21:18 | 21.29729 | -59.66390 | 40250 ft | 442 kts | 229° |
| 2026-04-11 21:19 | 21.25411 | -59.71086 | 40230 ft | 442 kts | 229° |
| 2026-04-11 21:19 | 21.21101 | -59.75788 | 40231 ft | 442 kts | 229° |
| 2026-04-11 21:20 | 21.16793 | -59.80498 | 40247 ft | 441 kts | 229° |
| 2026-04-11 21:20 | 21.12494 | -59.85198 | 40250 ft | 442 kts | 229° |
| 2026-04-11 21:21 | 21.08220 | -59.89866 | 40231 ft | 442 kts | 229° |
| 2026-04-11 21:21 | 21.03915 | -59.94564 | 40231 ft | 442 kts | 229° |
| 2026-04-11 21:22 | 20.99604 | -59.99265 | 40246 ft | 441 kts | 229° |
| 2026-04-11 21:22 | 20.95302 | -60.03950 | 40246 ft | 440 kts | 229° |
| 2026-04-11 21:23 | 20.91007 | -60.08625 | 40231 ft | 440 kts | 229° |
| 2026-04-11 21:23 | 20.86743 | -60.13262 | 40231 ft | 439 kts | 229° |
| 2026-04-11 21:24 | 20.82454 | -60.17921 | 40243 ft | 439 kts | 229° |
| 2026-04-11 21:24 | 20.78162 | -60.22581 | 40250 ft | 439 kts | 229° |
| 2026-04-11 21:25 | 20.73856 | -60.27240 | 40231 ft | 440 kts | 229° |
| 2026-04-11 21:25 | 20.69549 | -60.31893 | 40231 ft | 440 kts | 229° |
| 2026-04-11 21:26 | 20.65249 | -60.36545 | 40249 ft | 440 kts | 229° |
| 2026-04-11 21:26 | 20.60971 | -60.41173 | 40251 ft | 440 kts | 229° |
| 2026-04-11 21:27 | 20.56673 | -60.45818 | 40231 ft | 439 kts | 229° |
| 2026-04-11 21:27 | 20.52376 | -60.50458 | 40231 ft | 439 kts | 229° |
| 2026-04-11 21:28 | 20.48079 | -60.55095 | 40244 ft | 439 kts | 229° |
| 2026-04-11 21:28 | 20.43780 | -60.59730 | 40250 ft | 439 kts | 229° |
| 2026-04-11 21:29 | 20.39480 | -60.64362 | 40232 ft | 439 kts | 229° |
| 2026-04-11 21:29 | 20.35206 | -60.68962 | 40231 ft | 439 kts | 229° |
| 2026-04-11 21:30 | 20.30911 | -60.73581 | 40246 ft | 439 kts | 229° |
| 2026-04-11 21:30 | 20.26618 | -60.78193 | 40247 ft | 439 kts | 229° |
| 2026-04-11 21:31 | 20.22315 | -60.82813 | 40243 ft | 439 kts | 229° |
| 2026-04-11 21:31 | 20.18747 | -60.86641 | 40240 ft | 439 kts | 229° |
| 2026-04-11 21:32 | 20.12250 | -60.93582 | 40246 ft | 439 kts | 229° |
| 2026-04-11 21:32 | 20.07974 | -60.98154 | 40232 ft | 438 kts | 229° |
| 2026-04-11 21:33 | 20.03673 | -61.02754 | 40044 ft | 436 kts | 229° |
| 2026-04-11 21:33 | 19.99396 | -61.07324 | 40003 ft | 436 kts | 229° |
| 2026-04-11 21:34 | 19.95120 | -61.11892 | 39992 ft | 436 kts | 229° |
| 2026-04-11 21:34 | 19.90847 | -61.16457 | 39989 ft | 436 kts | 229° |
| 2026-04-11 21:35 | 19.86566 | -61.21019 | 39988 ft | 436 kts | 229° |
| 2026-04-11 21:35 | 19.82271 | -61.25581 | 39990 ft | 435 kts | 230° |
| 2026-04-11 21:36 | 19.78015 | -61.30115 | 39992 ft | 435 kts | 230° |
| 2026-04-11 21:36 | 19.73741 | -61.34665 | 39995 ft | 434 kts | 230° |
| 2026-04-11 21:37 | 19.69470 | -61.39206 | 40000 ft | 434 kts | 230° |
| 2026-04-11 21:37 | 19.65230 | -61.43709 | 39999 ft | 434 kts | 230° |
| 2026-04-11 21:38 | 19.60958 | -61.48239 | 39999 ft | 434 kts | 230° |
| 2026-04-11 21:38 | 19.56683 | -61.52763 | 39996 ft | 434 kts | 230° |
| 2026-04-11 21:39 | 19.52407 | -61.57281 | 39995 ft | 434 kts | 230° |
| 2026-04-11 21:39 | 19.48134 | -61.61799 | 39991 ft | 434 kts | 230° |
| 2026-04-11 21:40 | 19.43862 | -61.66317 | 39991 ft | 434 kts | 230° |
| 2026-04-11 21:40 | 19.39593 | -61.70828 | 39991 ft | 433 kts | 230° |
| 2026-04-11 21:41 | 19.35319 | -61.75341 | 39990 ft | 434 kts | 230° |
| 2026-04-11 21:41 | 19.31031 | -61.79843 | 39991 ft | 434 kts | 229° |
| 2026-04-11 21:42 | 19.26762 | -61.84312 | 39999 ft | 434 kts | 229° |
| 2026-04-11 21:42 | 19.22474 | -61.88803 | 40000 ft | 434 kts | 229° |
| 2026-04-11 21:43 | 19.18190 | -61.93291 | 39999 ft | 434 kts | 229° |
| 2026-04-11 21:43 | 19.13886 | -61.97792 | 40001 ft | 435 kts | 229° |
| 2026-04-11 21:44 | 19.09578 | -62.02293 | 39998 ft | 435 kts | 230° |
| 2026-04-11 21:44 | 19.05278 | -62.06784 | 39999 ft | 434 kts | 229° |
| 2026-04-11 21:45 | 19.01009 | -62.11237 | 39997 ft | 434 kts | 229° |
| 2026-04-11 21:45 | 18.96714 | -62.15717 | 39999 ft | 434 kts | 230° |
| 2026-04-11 21:46 | 18.92406 | -62.20206 | 39996 ft | 434 kts | 229° |
| 2026-04-11 21:46 | 18.88102 | -62.24683 | 39996 ft | 434 kts | 229° |
| 2026-04-11 21:47 | 18.81637 | -62.31407 | 40000 ft | 434 kts | 229° |
| 2026-04-11 21:48 | 18.77361 | -62.35849 | 39998 ft | 434 kts | 229° |
| 2026-04-11 21:48 | 18.73046 | -62.40322 | 40000 ft | 435 kts | 229° |
| 2026-04-11 21:49 | 18.68722 | -62.44797 | 39999 ft | 435 kts | 230° |
| 2026-04-11 21:49 | 18.64404 | -62.49267 | 39997 ft | 435 kts | 230° |
| 2026-04-11 21:50 | 18.60090 | -62.53738 | 40000 ft | 435 kts | 230° |
| 2026-04-11 21:50 | 18.55774 | -62.58204 | 39997 ft | 434 kts | 230° |
| 2026-04-11 21:51 | 18.51453 | -62.62673 | 39991 ft | 435 kts | 230° |
| 2026-04-11 21:51 | 18.47134 | -62.67138 | 39989 ft | 435 kts | 229° |
| 2026-04-11 21:52 | 18.42810 | -62.71604 | 39991 ft | 435 kts | 229° |
| 2026-04-11 21:52 | 18.38512 | -62.76041 | 39992 ft | 435 kts | 229° |
| 2026-04-11 21:53 | 18.34184 | -62.80501 | 39990 ft | 435 kts | 229° |
| 2026-04-11 21:53 | 18.29858 | -62.84959 | 39988 ft | 435 kts | 229° |
| 2026-04-11 21:54 | 18.25525 | -62.89419 | 39997 ft | 435 kts | 230° |
| 2026-04-11 21:54 | 18.21199 | -62.93871 | 40000 ft | 435 kts | 230° |
| 2026-04-11 21:55 | 18.16865 | -62.98327 | 40000 ft | 435 kts | 230° |
| 2026-04-11 21:55 | 18.12538 | -63.02762 | 39993 ft | 434 kts | 229° |
| 2026-04-11 21:56 | 18.08204 | -63.07200 | 39997 ft | 434 kts | 230° |
| 2026-04-11 21:56 | 18.03877 | -63.11637 | 39992 ft | 434 kts | 230° |
| 2026-04-11 21:57 | 17.99560 | -63.16069 | 39991 ft | 434 kts | 230° |
| 2026-04-11 21:57 | 17.95268 | -63.20477 | 39997 ft | 434 kts | 230° |
| 2026-04-11 21:58 | 17.90924 | -63.24937 | 39996 ft | 434 kts | 230° |
| 2026-04-11 21:58 | 17.86635 | -63.29337 | 39994 ft | 434 kts | 230° |
| 2026-04-11 21:59 | 17.82317 | -63.33763 | 40000 ft | 434 kts | 230° |
| 2026-04-11 21:59 | 17.77994 | -63.38189 | 39999 ft | 434 kts | 230° |
| 2026-04-11 22:00 | 17.73673 | -63.42612 | 39998 ft | 434 kts | 230° |
| 2026-04-11 22:00 | 17.69349 | -63.47034 | 40000 ft | 434 kts | 230° |
| 2026-04-11 22:01 | 17.65026 | -63.51450 | 39997 ft | 434 kts | 230° |
| 2026-04-11 22:01 | 17.60698 | -63.55867 | 39997 ft | 434 kts | 230° |
| 2026-04-11 22:02 | 17.56375 | -63.60283 | 39997 ft | 434 kts | 230° |
| 2026-04-11 22:02 | 17.52044 | -63.64701 | 39999 ft | 434 kts | 230° |
| 2026-04-11 22:03 | 17.47713 | -63.69107 | 39999 ft | 434 kts | 230° |
| 2026-04-11 22:03 | 17.43399 | -63.73487 | 39999 ft | 434 kts | 230° |
| 2026-04-11 22:04 | 17.39065 | -63.77897 | 39997 ft | 434 kts | 230° |
| 2026-04-11 22:04 | 17.34734 | -63.82303 | 39999 ft | 434 kts | 230° |
| 2026-04-11 22:05 | 17.30407 | -63.86702 | 40000 ft | 434 kts | 230° |
| 2026-04-11 22:05 | 17.26073 | -63.91106 | 40006 ft | 433 kts | 230° |
| 2026-04-11 22:06 | 17.21744 | -63.95504 | 40008 ft | 434 kts | 230° |
| 2026-04-11 22:06 | 17.17414 | -63.99897 | 40007 ft | 434 kts | 230° |
| 2026-04-11 22:07 | 17.13107 | -64.04256 | 40009 ft | 433 kts | 230° |
| 2026-04-11 22:07 | 17.08758 | -64.08652 | 40015 ft | 432 kts | 230° |
| 2026-04-11 22:08 | 17.04471 | -64.12989 | 40017 ft | 432 kts | 230° |
| 2026-04-11 22:08 | 17.00148 | -64.17359 | 40017 ft | 432 kts | 230° |
| 2026-04-11 22:09 | 16.95828 | -64.21724 | 40018 ft | 432 kts | 230° |
| 2026-04-11 22:09 | 16.91508 | -64.26087 | 40017 ft | 432 kts | 230° |
| 2026-04-11 22:10 | 16.87182 | -64.30451 | 40017 ft | 432 kts | 230° |
| 2026-04-11 22:10 | 16.82860 | -64.34809 | 40017 ft | 432 kts | 230° |
| 2026-04-11 22:11 | 16.78538 | -64.39163 | 40018 ft | 432 kts | 230° |
| 2026-04-11 22:11 | 16.74215 | -64.43517 | 40017 ft | 432 kts | 230° |
| 2026-04-11 22:12 | 16.69882 | -64.47878 | 40017 ft | 432 kts | 230° |
| 2026-04-11 22:12 | 16.65584 | -64.52200 | 40010 ft | 432 kts | 230° |
| 2026-04-11 22:13 | 16.61250 | -64.56555 | 40008 ft | 432 kts | 230° |
| 2026-04-11 22:13 | 16.56916 | -64.60906 | 40014 ft | 432 kts | 230° |
| 2026-04-11 22:14 | 16.52574 | -64.65254 | 40017 ft | 432 kts | 230° |
| 2026-04-11 22:14 | 16.48242 | -64.69590 | 40017 ft | 432 kts | 230° |
| 2026-04-11 22:15 | 16.43911 | -64.73928 | 40017 ft | 432 kts | 230° |
| 2026-04-11 22:15 | 16.39582 | -64.78265 | 40018 ft | 432 kts | 230° |
| 2026-04-11 22:16 | 16.35250 | -64.82601 | 40018 ft | 432 kts | 230° |
| 2026-04-11 22:16 | 16.30918 | -64.86935 | 40017 ft | 432 kts | 230° |
| 2026-04-11 22:17 | 16.26588 | -64.91263 | 40017 ft | 432 kts | 230° |
| 2026-04-11 22:17 | 16.22985 | -64.94861 | 40017 ft | 431 kts | 230° |
| 2026-04-11 22:18 | 16.18652 | -64.99179 | 40009 ft | 431 kts | 230° |
| 2026-04-11 22:18 | 16.14329 | -65.03488 | 40016 ft | 430 kts | 230° |
| 2026-04-11 22:19 | 16.10002 | -65.07799 | 40017 ft | 430 kts | 230° |
| 2026-04-11 22:19 | 16.05680 | -65.12101 | 40017 ft | 430 kts | 230° |
| 2026-04-11 22:20 | 16.01366 | -65.16395 | 40011 ft | 429 kts | 230° |
| 2026-04-11 22:20 | 15.97070 | -65.20670 | 40008 ft | 430 kts | 230° |
| 2026-04-11 22:21 | 15.92738 | -65.24977 | 40008 ft | 431 kts | 230° |
| 2026-04-11 22:21 | 15.88409 | -65.29277 | 40008 ft | 430 kts | 230° |
| 2026-04-11 22:22 | 15.84081 | -65.33574 | 40008 ft | 430 kts | 230° |
| 2026-04-11 22:22 | 15.79753 | -65.37869 | 40008 ft | 430 kts | 230° |
| 2026-04-11 22:23 | 15.75427 | -65.42159 | 40008 ft | 430 kts | 230° |
| 2026-04-11 22:23 | 15.71130 | -65.46417 | 40008 ft | 430 kts | 230° |
| 2026-04-11 22:24 | 15.66772 | -65.50736 | 40007 ft | 430 kts | 230° |
| 2026-04-11 22:24 | 15.62480 | -65.54999 | 39999 ft | 429 kts | 230° |
| 2026-04-11 22:25 | 15.58166 | -65.59286 | 39997 ft | 430 kts | 230° |
| 2026-04-11 22:25 | 15.53851 | -65.63576 | 39998 ft | 430 kts | 230° |
| 2026-04-11 22:26 | 15.49529 | -65.67866 | 40000 ft | 430 kts | 230° |
| 2026-04-11 22:26 | 15.45205 | -65.72155 | 39997 ft | 430 kts | 230° |
| 2026-04-11 22:27 | 15.40877 | -65.76444 | 39997 ft | 430 kts | 230° |
| 2026-04-11 22:27 | 15.36551 | -65.80731 | 39997 ft | 430 kts | 230° |
| 2026-04-11 22:28 | 15.32225 | -65.85018 | 39995 ft | 430 kts | 230° |
| 2026-04-11 22:28 | 15.27905 | -65.89312 | 39999 ft | 430 kts | 230° |
| 2026-04-11 22:29 | 15.23643 | -65.93596 | 40086 ft | 431 kts | 230° |
| 2026-04-11 22:29 | 15.19339 | -65.97930 | 40089 ft | 432 kts | 230° |
| 2026-04-11 22:30 | 15.15030 | -66.02265 | 40082 ft | 431 kts | 230° |
| 2026-04-11 22:30 | 15.10734 | -66.06584 | 40079 ft | 431 kts | 230° |
| 2026-04-11 22:31 | 15.06429 | -66.10909 | 40080 ft | 431 kts | 230° |
| 2026-04-11 22:31 | 15.02128 | -66.15228 | 40077 ft | 431 kts | 230° |
| 2026-04-11 22:32 | 14.97826 | -66.19545 | 40076 ft | 431 kts | 230° |
| 2026-04-11 22:32 | 14.93523 | -66.23862 | 40063 ft | 431 kts | 230° |
| 2026-04-11 22:33 | 14.89214 | -66.28181 | 40074 ft | 432 kts | 230° |
| 2026-04-11 22:33 | 14.84901 | -66.32502 | 40059 ft | 432 kts | 230° |
| 2026-04-11 22:34 | 14.80580 | -66.36828 | 40070 ft | 432 kts | 230° |
| 2026-04-11 22:34 | 14.76260 | -66.41150 | 40064 ft | 432 kts | 230° |
| 2026-04-11 22:35 | 14.71935 | -66.45475 | 40053 ft | 433 kts | 230° |
| 2026-04-11 22:35 | 14.67607 | -66.49795 | 40064 ft | 433 kts | 230° |
| 2026-04-11 22:36 | 14.63298 | -66.54090 | 40063 ft | 433 kts | 230° |
| 2026-04-11 22:36 | 14.58958 | -66.58419 | 40054 ft | 434 kts | 230° |
| 2026-04-11 22:37 | 14.54621 | -66.62744 | 40056 ft | 433 kts | 230° |
| 2026-04-11 22:37 | 14.50281 | -66.67073 | 40046 ft | 434 kts | 230° |
| 2026-04-11 22:38 | 14.45940 | -66.71399 | 40057 ft | 434 kts | 230° |
| 2026-04-11 22:38 | 14.41587 | -66.75734 | 40050 ft | 434 kts | 230° |
| 2026-04-11 22:39 | 14.37244 | -66.80056 | 40042 ft | 433 kts | 230° |
| 2026-04-11 22:39 | 14.32908 | -66.84369 | 40044 ft | 433 kts | 230° |
| 2026-04-11 22:40 | 14.28571 | -66.88682 | 40042 ft | 433 kts | 230° |
| 2026-04-11 22:40 | 14.24256 | -66.92970 | 40046 ft | 433 kts | 230° |
| 2026-04-11 22:41 | 14.19913 | -66.97282 | 40045 ft | 433 kts | 230° |
| 2026-04-11 22:41 | 14.15575 | -67.01588 | 40047 ft | 433 kts | 229° |
| 2026-04-11 22:42 | 14.11227 | -67.05902 | 40050 ft | 434 kts | 229° |
| 2026-04-11 22:42 | 14.06877 | -67.10207 | 40045 ft | 433 kts | 229° |
| 2026-04-11 22:43 | 14.00352 | -67.16662 | 40057 ft | 434 kts | 229° |
| 2026-04-11 22:43 | 13.95994 | -67.20977 | 40044 ft | 436 kts | 229° |
| 2026-04-11 22:44 | 13.91612 | -67.25314 | 40044 ft | 437 kts | 229° |
| 2026-04-11 22:44 | 13.87229 | -67.29648 | 40043 ft | 437 kts | 229° |
| 2026-04-11 22:45 | 13.82842 | -67.33982 | 40044 ft | 437 kts | 229° |
| 2026-04-11 22:45 | 13.78458 | -67.38313 | 40046 ft | 437 kts | 229° |
| 2026-04-11 22:46 | 13.74070 | -67.42645 | 40043 ft | 437 kts | 229° |
| 2026-04-11 22:46 | 13.69679 | -67.46979 | 40049 ft | 437 kts | 229° |
| 2026-04-11 22:47 | 13.65323 | -67.51275 | 40043 ft | 437 kts | 229° |
| 2026-04-11 22:47 | 13.61185 | -67.55804 | 40044 ft | 430 kts | 237° |
| 2026-04-11 22:48 | 13.59446 | -67.58279 | 39692 ft | 416 kts | 239° |
| 2026-04-11 22:48 | 13.57849 | -67.60739 | 38889 ft | 413 kts | 241° |
| 2026-04-11 22:48 | 13.56309 | -67.63179 | 37926 ft | 413 kts | 241° |
| 2026-04-11 22:48 | 13.54740 | -67.65663 | 36896 ft | 415 kts | 241° |
| 2026-04-11 22:49 | 13.53153 | -67.68153 | 35836 ft | 418 kts | 241° |
| 2026-04-11 22:49 | 13.51539 | -67.70664 | 34650 ft | 422 kts | 241° |
| 2026-04-11 22:49 | 13.49901 | -67.73200 | 33334 ft | 429 kts | 240° |
| 2026-04-11 22:49 | 13.48225 | -67.75778 | 31949 ft | 436 kts | 240° |
| 2026-04-11 22:50 | 13.46525 | -67.78385 | 30561 ft | 441 kts | 239° |
| 2026-04-11 22:50 | 13.44804 | -67.81016 | 29113 ft | 446 kts | 238° |
| 2026-04-11 22:50 | 13.43061 | -67.83677 | 27587 ft | 451 kts | 237° |
| 2026-04-11 22:50 | 13.41296 | -67.86373 | 25871 ft | 458 kts | 237° |
| 2026-04-11 22:51 | 13.39508 | -67.89104 | 24141 ft | 465 kts | 237° |
| 2026-04-11 22:51 | 13.37704 | -67.91862 | 22772 ft | 462 kts | 236° |
| 2026-04-11 22:51 | 13.35923 | -67.94586 | 21525 ft | 457 kts | 236° |
| 2026-04-11 22:51 | 13.34163 | -67.97277 | 20340 ft | 450 kts | 236° |
| 2026-04-11 22:52 | 13.32453 | -67.99890 | 19178 ft | 444 kts | 236° |
| 2026-04-11 22:52 | 13.30718 | -68.02539 | 18005 ft | 438 kts | 236° |
| 2026-04-11 22:52 | 13.29029 | -68.05117 | 16889 ft | 432 kts | 236° |
| 2026-04-11 22:52 | 13.27389 | -68.07620 | 15841 ft | 425 kts | 236° |
| 2026-04-11 22:53 | 13.25754 | -68.10114 | 14785 ft | 419 kts | 236° |
| 2026-04-11 22:53 | 13.24136 | -68.12582 | 13713 ft | 413 kts | 237° |
| 2026-04-11 22:53 | 13.22542 | -68.15013 | 12641 ft | 408 kts | 237° |
| 2026-04-11 22:53 | 13.20963 | -68.17422 | 11546 ft | 405 kts | 237° |
| 2026-04-11 22:54 | 13.19401 | -68.19802 | 11005 ft | 404 kts | 236° |
| 2026-04-11 22:54 | 13.17833 | -68.22196 | 10626 ft | 403 kts | 236° |
| 2026-04-11 22:54 | 13.16276 | -68.24569 | 10255 ft | 401 kts | 236° |
| 2026-04-11 22:54 | 13.14717 | -68.26938 | 10067 ft | 400 kts | 236° |
| 2026-04-11 22:55 | 13.11607 | -68.31663 | 10005 ft | 399 kts | 236° |
| 2026-04-11 22:55 | 13.10093 | -68.33968 | 9999 ft | 376 kts | 236° |
| 2026-04-11 22:55 | 13.08676 | -68.36123 | 9997 ft | 352 kts | 236° |
| 2026-04-11 22:56 | 13.07352 | -68.38137 | 10004 ft | 330 kts | 236° |
| 2026-04-11 22:56 | 13.06106 | -68.40033 | 9997 ft | 310 kts | 236° |
| 2026-04-11 22:56 | 13.04921 | -68.41835 | 9998 ft | 301 kts | 236° |
| 2026-04-11 22:56 | 13.03752 | -68.43611 | 10000 ft | 300 kts | 236° |
| 2026-04-11 22:57 | 13.02589 | -68.45381 | 10000 ft | 300 kts | 236° |
| 2026-04-11 22:57 | 13.01437 | -68.47132 | 10000 ft | 300 kts | 236° |
| 2026-04-11 22:57 | 13.00271 | -68.48905 | 10000 ft | 299 kts | 236° |
| 2026-04-11 22:57 | 12.99104 | -68.50676 | 10000 ft | 300 kts | 236° |
| 2026-04-11 22:58 | 12.97938 | -68.52447 | 10007 ft | 300 kts | 236° |
| 2026-04-11 22:58 | 12.96774 | -68.54214 | 10000 ft | 300 kts | 236° |
| 2026-04-11 22:58 | 12.95606 | -68.55987 | 10000 ft | 299 kts | 236° |
| 2026-04-11 22:58 | 12.94441 | -68.57756 | 10002 ft | 300 kts | 236° |
| 2026-04-11 22:59 | 12.93276 | -68.59525 | 10011 ft | 300 kts | 236° |
| 2026-04-11 22:59 | 12.92109 | -68.61297 | 10002 ft | 300 kts | 236° |
| 2026-04-11 22:59 | 12.90941 | -68.63070 | 10010 ft | 300 kts | 235° |
| 2026-04-11 22:59 | 12.89776 | -68.64836 | 10013 ft | 299 kts | 235° |
| 2026-04-11 23:00 | 12.88608 | -68.66607 | 10010 ft | 300 kts | 235° |
| 2026-04-11 23:00 | 12.87442 | -68.68371 | 10010 ft | 300 kts | 235° |
| 2026-04-11 23:00 | 12.86275 | -68.70140 | 10001 ft | 299 kts | 236° |
| 2026-04-11 23:00 | 12.85106 | -68.71913 | 10004 ft | 300 kts | 235° |
| 2026-04-11 23:01 | 12.83938 | -68.73685 | 10006 ft | 299 kts | 235° |
| 2026-04-11 23:01 | 12.82769 | -68.75451 | 10005 ft | 300 kts | 235° |
| 2026-04-11 23:01 | 12.81601 | -68.77219 | 10005 ft | 300 kts | 235° |
| 2026-04-11 23:01 | 12.80450 | -68.78963 | 10003 ft | 300 kts | 235° |
| 2026-04-11 23:02 | 12.79281 | -68.80736 | 10013 ft | 300 kts | 235° |
| 2026-04-11 23:02 | 12.78115 | -68.82503 | 10014 ft | 300 kts | 235° |
| 2026-04-11 23:02 | 12.76946 | -68.84272 | 10002 ft | 300 kts | 235° |
| 2026-04-11 23:02 | 12.75780 | -68.86036 | 10009 ft | 300 kts | 235° |
| 2026-04-11 23:03 | 12.74612 | -68.87802 | 10002 ft | 300 kts | 235° |
| 2026-04-11 23:03 | 12.73442 | -68.89572 | 10005 ft | 300 kts | 235° |
| 2026-04-11 23:03 | 12.72279 | -68.91334 | 10003 ft | 299 kts | 236° |
| 2026-04-11 23:03 | 12.71109 | -68.93106 | 10003 ft | 300 kts | 235° |
| 2026-04-11 23:04 | 12.69945 | -68.94860 | 9721 ft | 297 kts | 235° |
| 2026-04-11 23:04 | 12.68782 | -68.96612 | 9283 ft | 295 kts | 235° |
| 2026-04-11 23:04 | 12.68018 | -68.97763 | 9043 ft | 296 kts | 235° |
| 2026-04-11 23:04 | 12.66862 | -68.99507 | 8660 ft | 295 kts | 235° |
| 2026-04-11 23:05 | 12.65730 | -69.01216 | 8290 ft | 293 kts | 235° |
| 2026-04-11 23:05 | 12.64575 | -69.02963 | 8035 ft | 290 kts | 234° |
| 2026-04-11 23:05 | 12.63442 | -69.04672 | 8005 ft | 291 kts | 234° |
| 2026-04-11 23:05 | 12.62307 | -69.06384 | 7997 ft | 290 kts | 235° |
| 2026-04-11 23:06 | 12.61172 | -69.08097 | 7994 ft | 291 kts | 235° |
| 2026-04-11 23:06 | 12.60037 | -69.09810 | 7996 ft | 291 kts | 234° |
| 2026-04-11 23:06 | 12.58901 | -69.11523 | 7997 ft | 291 kts | 234° |
| 2026-04-11 23:06 | 12.57764 | -69.13237 | 7994 ft | 291 kts | 234° |
| 2026-04-11 23:07 | 12.56600 | -69.14923 | 7967 ft | 288 kts | 229° |
| 2026-04-11 23:07 | 12.55110 | -69.16258 | 7466 ft | 285 kts | 206° |
| 2026-04-11 23:07 | 12.53234 | -69.16783 | 7029 ft | 279 kts | 182° |
| 2026-04-11 23:07 | 12.51305 | -69.16767 | 6580 ft | 276 kts | 175° |
| 2026-04-11 23:08 | 12.49399 | -69.16633 | 6199 ft | 273 kts | 174° |
| 2026-04-11 23:08 | 12.47504 | -69.16488 | 5816 ft | 271 kts | 174° |
| 2026-04-11 23:08 | 12.45630 | -69.16354 | 5395 ft | 270 kts | 174° |
| 2026-04-11 23:08 | 12.43766 | -69.16228 | 4985 ft | 267 kts | 173° |
| 2026-04-11 23:09 | 12.41909 | -69.16107 | 4567 ft | 267 kts | 173° |
| 2026-04-11 23:09 | 12.40061 | -69.15991 | 4182 ft | 265 kts | 173° |
| 2026-04-11 23:09 | 12.38218 | -69.15876 | 3806 ft | 265 kts | 173° |
| 2026-04-11 23:09 | 12.36385 | -69.15768 | 3430 ft | 264 kts | 173° |
| 2026-04-11 23:10 | 12.34576 | -69.15665 | 3100 ft | 262 kts | 173° |
| 2026-04-11 23:10 | 12.32740 | -69.15558 | 3008 ft | 262 kts | 172° |
| 2026-04-11 23:10 | 12.30925 | -69.15454 | 2877 ft | 259 kts | 173° |
| 2026-04-11 23:10 | 12.29129 | -69.15348 | 2565 ft | 255 kts | 173° |
| 2026-04-11 23:11 | 12.27459 | -69.15253 | 2505 ft | 226 kts | 172° |
| 2026-04-11 23:11 | 12.26012 | -69.15177 | 2468 ft | 197 kts | 172° |
| 2026-04-11 23:11 | 12.24732 | -69.14988 | 2456 ft | 178 kts | 157° |
| 2026-04-11 23:11 | 12.23676 | -69.14424 | 2476 ft | 169 kts | 136° |
| 2026-04-11 23:12 | 12.22949 | -69.13514 | 2492 ft | 163 kts | 113° |
| 2026-04-11 23:12 | 12.22597 | -69.12420 | 2500 ft | 162 kts | 103° |
| 2026-04-11 23:12 | 12.22281 | -69.11304 | 2524 ft | 161 kts | 104° |
| 2026-04-11 23:12 | 12.21994 | -69.10265 | 2468 ft | 148 kts | 103° |
| 2026-04-11 23:13 | 12.21731 | -69.09251 | 2481 ft | 148 kts | 102° |
| 2026-04-11 23:13 | 12.21481 | -69.08240 | 2294 ft | 146 kts | 101° |
| 2026-04-11 23:13 | 12.21267 | -69.07225 | 2080 ft | 145 kts | 99° |
| 2026-04-11 23:13 | 12.21068 | -69.06225 | 1880 ft | 143 kts | 101° |
| 2026-04-11 23:14 | 12.20860 | -69.05225 | 1699 ft | 144 kts | 99° |
| 2026-04-11 23:14 | 12.20652 | -69.04214 | 1509 ft | 146 kts | 99° |
| 2026-04-11 23:14 | 12.20444 | -69.03240 | 1328 ft | 145 kts | 101° |
| 2026-04-11 23:14 | 12.20216 | -69.02241 | 1130 ft | 144 kts | 101° |
| 2026-04-11 23:15 | 12.20004 | -69.01239 | 942 ft | 144 kts | 98° |
| 2026-04-11 23:15 | 12.19816 | -69.00230 | 737 ft | 144 kts | 102° |
| 2026-04-11 23:15 | 12.19566 | -68.99237 | 634 ft | 145 kts | 101° |
| 2026-04-11 23:15 | 12.19371 | -68.98226 | 405 ft | 145 kts | 100° |
| 2026-04-11 23:16 | 12.19146 | -68.97219 | 193 ft | 146 kts | 101° |
| 2026-04-11 23:16 | 12.18942 | -68.96205 | 64 ft | 144 kts | 101° |
| 2026-04-11 23:16 | 12.18754 | -68.95326 | 47 ft | 114 kts | 102° |
| 2026-04-11 23:16 | 12.18622 | -68.94707 | 52 ft | 57 kts | 102° |
| 2026-04-11 23:17 | 12.18577 | -68.94502 | 54 ft | 10 kts | 112° |
| 2026-04-11 23:17 | 12.18551 | -68.94475 | 54 ft | 3 kts | 152° |
| 2026-04-11 23:17 | 12.18522 | -68.94468 | 54 ft | 6 kts | 175° |
| 2026-04-11 23:17 | 12.18473 | -68.94474 | 50 ft | 8 kts | 191° |
| 2026-04-11 23:18 | 12.18429 | -68.94489 | 53 ft | 3 kts | 211° |
| 2026-04-11 23:18 | 12.18421 | -68.94498 | 53 ft | 1 kts | 231° |
| 2026-04-11 23:18 | 12.18419 | -68.94503 | 49 ft | 1 kts | 243° |
| 2026-04-11 23:18 | 12.18412 | -68.94548 | 51 ft | 13 kts | 270° |
| 2026-04-11 23:19 | 12.18428 | -68.94633 | 52 ft | 12 kts | 282° |
| 2026-04-11 23:19 | 12.18446 | -68.94714 | 52 ft | 12 kts | 282° |
| 2026-04-11 23:19 | 12.18464 | -68.94798 | 52 ft | 12 kts | 282° |
| 2026-04-11 23:19 | 12.18482 | -68.94885 | 52 ft | 13 kts | 282° |
| 2026-04-11 23:20 | 12.18501 | -68.94974 | 51 ft | 13 kts | 282° |
| 2026-04-11 23:20 | 12.18521 | -68.95066 | 51 ft | 13 kts | 282° |
| 2026-04-11 23:20 | 12.18540 | -68.95159 | 51 ft | 14 kts | 282° |
| 2026-04-11 23:20 | 12.18561 | -68.95256 | 49 ft | 14 kts | 282° |
| 2026-04-11 23:21 | 12.18582 | -68.95356 | 46 ft | 15 kts | 282° |
| 2026-04-11 23:21 | 12.18603 | -68.95456 | 50 ft | 9 kts | 281° |
| 2026-04-11 23:21 | 12.18613 | -68.95505 | 50 ft | 7 kts | 281° |
| 2026-04-11 23:21 | 12.18615 | -68.95530 | 50 ft | 2 kts | 265° |
| 2026-04-11 23:22 | 12.18602 | -68.95550 | 49 ft | 4 kts | 223° |
| 2026-04-11 23:22 | 12.18557 | -68.95568 | 50 ft | 3 kts | 194° |
| 2026-04-11 23:22 | 12.18542 | -68.95572 | 51 ft | 4 kts | 193° |
| 2026-04-11 23:22 | 12.18534 | -68.95574 | 51 ft | 1 kts | 193° |
| 2026-04-11 23:23 | 12.18533 | -68.95574 | 51 ft | 0 kts | 193° |
| 2026-04-11 23:23 | 12.18531 | -68.95574 | 51 ft | 0 kts | 193° |
| 2026-04-11 23:26 | 12.19057 | -68.96780 | 108 ft | 146 kts | 100° |
| 2026-04-11 23:26 | 12.18853 | -68.95794 | 47 ft | 130 kts | 102° |
| 2026-04-11 23:27 | 12.18683 | -68.94992 | 52 ft | 97 kts | 102° |
| 2026-04-11 23:27 | 12.18595 | -68.94577 | 49 ft | 31 kts | 102° |
| 2026-04-11 23:27 | 12.18562 | -68.94481 | 50 ft | 5 kts | 132° |